Observation data for Endee on 01/21/2019      Previous  Date  Next       Current Mesonet Observations  Soil Data  Daily Summary Page  Observations in Plain Language
KEN1 210600Z 23009KT 09/M02 A2993 RMK A01 T00881016  RH  048%=      5-min Rain = 0
KEN1 210601Z 22008KT 09/M02 A2993 RMK A01 T00871016  RH  048%=      5-min Rain = 0
KEN1 210602Z 23009KT 09/M02 A2993 RMK A01 T00881015  RH  048%=      5-min Rain = 0
KEN1 210603Z 23009KT 09/M02 A2993 RMK A01 T00901015  RH  048%=      5-min Rain = 0
KEN1 210604Z 23009KT 09/M02 A2993 RMK A01 T00911015  RH  048%=      5-min Rain = 0
KEN1 210605Z 23009KT 09/M02 A2993 RMK A01 T00911015  RH  048%=      5-min Rain = 0
KEN1 210606Z 23009KT 09/M02 A2993 RMK A01 T00901015  RH  048%=      5-min Rain = 0
KEN1 210607Z 23009KT 09/M01 A2993 RMK A01 T00911014  RH  047%=      5-min Rain = 0
KEN1 210608Z 23009KT 09/M02 A2993 RMK A01 T00921015  RH  047%=      5-min Rain = 0
KEN1 210609Z 23009KT 09/M01 A2993 RMK A01 T00941014  RH  047%=      5-min Rain = 0
KEN1 210610Z 24010KT 10/M01 A2993 RMK A01 T00951014  RH  046%=      5-min Rain = 0
KEN1 210611Z 23008KT 10/M01 A2993 RMK A01 T00981014  RH  046%=      5-min Rain = 0
KEN1 210612Z 23008KT 10/M01 A2993 RMK A01 T00981014  RH  045%=      5-min Rain = 0
KEN1 210613Z 23009KT 10/M01 A2993 RMK A01 T00981014  RH  046%=      5-min Rain = 0
KEN1 210614Z 22008KT 10/M01 A2993 RMK A01 T00971014  RH  046%=      5-min Rain = 0
KEN1 210615Z 21006KT 10/M01 A2993 RMK A01 T00951014  RH  046%=      5-min Rain = 0
KEN1 210616Z 18006KT 09/M02 A2993 RMK A01 T00901016  RH  047%=      5-min Rain = 0
KEN1 210617Z 19005KT 09/M02 A2993 RMK A01 T00871017  RH  048%=      5-min Rain = 0
KEN1 210618Z 20005KT 09/M02 A2992 RMK A01 T00851017  RH  048%=      5-min Rain = 0
KEN1 210619Z 19007KT 08/M02 A2992 RMK A01 T00841017  RH  049%=      5-min Rain = 0
KEN1 210620Z 19007KT 09/M02 A2992 RMK A01 T00851017  RH  049%=      5-min Rain = 0
KEN1 210621Z 18007KT 08/M02 A2992 RMK A01 T00841016  RH  049%=      5-min Rain = 0
KEN1 210622Z 18008KT 08/M02 A2992 RMK A01 T00821015  RH  050%=      5-min Rain = 0
KEN1 210623Z 18008KT 08/M01 A2992 RMK A01 T00791014  RH  052%=      5-min Rain = 0
KEN1 210624Z 18009KT 08/M01 A2992 RMK A01 T00781012  RH  053%=      5-min Rain = 0
KEN1 210625Z 18009KT 08/M01 A2992 RMK A01 T00771012  RH  054%=      5-min Rain = 0
KEN1 210626Z 18009KT 08/M01 A2992 RMK A01 T00771011  RH  054%=      5-min Rain = 0
KEN1 210627Z 19009KT 08/M01 A2992 RMK A01 T00771010  RH  054%=      5-min Rain = 0
KEN1 210628Z 20010KT 08/M01 A2992 RMK A01 T00781010  RH  054%=      5-min Rain = 0
KEN1 210629Z 20010KT 08/M01 A2992 RMK A01 T00821010  RH  052%=      5-min Rain = 0
KEN1 210630Z 21010KT 09/M01 A2992 RMK A01 T00881010  RH  050%=      5-min Rain = 0
KEN1 210631Z 21011KT 09/M01 A2992 RMK A01 T00931010  RH  049%=      5-min Rain = 0
KEN1 210632Z 21010KT 10/M01 A2992 RMK A01 T00951011  RH  048%=      5-min Rain = 0
KEN1 210633Z 21009KT 10/M01 A2992 RMK A01 T00961011  RH  047%=      5-min Rain = 0
KEN1 210634Z 21008KT 10/M01 A2992 RMK A01 T00961011  RH  047%=      5-min Rain = 0
KEN1 210635Z 21009KT 10/M01 A2992 RMK A01 T00951011  RH  047%=      5-min Rain = 0
KEN1 210636Z 21009KT 09/M01 A2992 RMK A01 T00941012  RH  048%=      5-min Rain = 0
KEN1 210637Z 20009KT 09/M01 A2992 RMK A01 T00931012  RH  048%=      5-min Rain = 0
KEN1 210638Z 20008KT 09/M01 A2992 RMK A01 T00921012  RH  048%=      5-min Rain = 0
KEN1 210639Z 20008KT 09/M01 A2992 RMK A01 T00901012  RH  049%=      5-min Rain = 0
KEN1 210640Z 21007KT 09/M01 A2992 RMK A01 T00881011  RH  050%=      5-min Rain = 0
KEN1 210641Z 21008KT 09/M01 A2992 RMK A01 T00871012  RH  050%=      5-min Rain = 0
KEN1 210642Z 21007KT 09/M01 A2992 RMK A01 T00861012  RH  050%=      5-min Rain = 0
KEN1 210643Z 20006KT 09/M01 A2992 RMK A01 T00861012  RH  050%=      5-min Rain = 0
KEN1 210644Z 21007KT 09/M01 A2992 RMK A01 T00851012  RH  051%=      5-min Rain = 0
KEN1 210645Z 22007KT 09/M01 A2992 RMK A01 T00851012  RH  050%=      5-min Rain = 0
KEN1 210646Z 22006KT 09/M01 A2993 RMK A01 T00861013  RH  050%=      5-min Rain = 0
KEN1 210647Z 22006KT 09/M01 A2993 RMK A01 T00891012  RH  049%=      5-min Rain = 0
KEN1 210648Z 22006KT 09/M01 A2993 RMK A01 T00911013  RH  048%=      5-min Rain = 0
KEN1 210649Z 24007KT 09/M01 A2993 RMK A01 T00941013  RH  047%=      5-min Rain = 0
KEN1 210650Z 23007KT 10/M01 A2993 RMK A01 T00951014  RH  047%=      5-min Rain = 0
KEN1 210651Z 23007KT 10/M01 A2993 RMK A01 T00951014  RH  047%=      5-min Rain = 0
KEN1 210652Z 22006KT 10/M01 A2993 RMK A01 T00961014  RH  046%=      5-min Rain = 0
KEN1 210653Z 22007KT 10/M01 A2993 RMK A01 T00961013  RH  046%=      5-min Rain = 0
KEN1 210654Z 21005KT 10/M01 A2993 RMK A01 T00951014  RH  047%=      5-min Rain = 0
KEN1 210655Z 22006KT 09/M01 A2993 RMK A01 T00941014  RH  047%=      5-min Rain = 0
KEN1 210656Z 23006KT 09/M01 A2993 RMK A01 T00941014  RH  047%=      5-min Rain = 0
KEN1 210657Z 23008KT 09/M01 A2993 RMK A01 T00931014  RH  047%=      5-min Rain = 0
KEN1 210658Z 23009KT 09/M01 A2993 RMK A01 T00941013  RH  047%=      5-min Rain = 0
KEN1 210659Z 23009KT 10/M01 A2993 RMK A01 T00961013  RH  046%=      5-min Rain = 0
KEN1 210700Z 23011KT 10/M01 A2993 RMK A01 T01011013  RH  045%=      5-min Rain = 0
KEN1 210701Z 23011KT 11/M01 A2993 RMK A01 T01071014  RH  043%=      5-min Rain = 0
KEN1 210702Z 23013KT 11/M01 A2993 RMK A01 T01121014  RH  042%=      5-min Rain = 0
KEN1 210703Z 23013KT 12/M02 A2993 RMK A01 T01151015  RH  040%=      5-min Rain = 0
KEN1 210704Z 23014KT 12/M02 A2993 RMK A01 T01171015  RH  040%=      5-min Rain = 0
KEN1 210705Z 24016KT 12/M02 A2993 RMK A01 T01171016  RH  040%=      5-min Rain = 0
KEN1 210706Z 24016KT 12/M02 A2993 RMK A01 T01191017  RH  039%=      5-min Rain = 0
KEN1 210707Z 23014KT 12/M02 A2993 RMK A01 T01211016  RH  039%=      5-min Rain = 0
KEN1 210708Z 23014KT 12/M02 A2993 RMK A01 T01201016  RH  039%=      5-min Rain = 0
KEN1 210709Z 24016G21KT 12/M02 A2993 RMK A01 T01201016  RH  039%=      5-min Rain = 0
KEN1 210710Z 23015KT 12/M02 A2993 RMK A01 T01201017  RH  039%=      5-min Rain = 0
KEN1 210711Z 23014G19KT 12/M02 A2993 RMK A01 T01201016  RH  039%=      5-min Rain = 0
KEN1 210712Z 23015G20KT 12/M02 A2993 RMK A01 T01191016  RH  039%=      5-min Rain = 0
KEN1 210713Z 23016KT 12/M02 A2992 RMK A01 T01181017  RH  039%=      5-min Rain = 0
KEN1 210714Z 22016KT 12/M02 A2992 RMK A01 T01171017  RH  039%=      5-min Rain = 0
KEN1 210715Z 22015G20KT 12/M02 A2991 RMK A01 T01161016  RH  040%=      5-min Rain = 0
KEN1 210716Z 22015KT 12/M02 A2991 RMK A01 T01161017  RH  040%=      5-min Rain = 0
KEN1 210717Z 22015KT 12/M02 A2991 RMK A01 T01161017  RH  040%=      5-min Rain = 0
KEN1 210718Z 22016KT 12/M02 A2991 RMK A01 T01161017  RH  040%=      5-min Rain = 0
KEN1 210719Z 22017KT 12/M02 A2991 RMK A01 T01161018  RH  039%=      5-min Rain = 0
KEN1 210720Z 22016KT 12/M02 A2991 RMK A01 T01171018  RH  039%=      5-min Rain = 0
KEN1 210721Z 22017KT 12/M02 A2991 RMK A01 T01171018  RH  039%=      5-min Rain = 0
KEN1 210722Z 22014KT 12/M02 A2991 RMK A01 T01171018  RH  039%=      5-min Rain = 0
KEN1 210723Z 22015KT 12/M02 A2991 RMK A01 T01161018  RH  039%=      5-min Rain = 0
KEN1 210724Z 23015KT 12/M02 A2991 RMK A01 T01151018  RH  039%=      5-min Rain = 0
KEN1 210725Z 22016KT 12/M02 A2991 RMK A01 T01151019  RH  039%=      5-min Rain = 0
KEN1 210726Z 22017KT 12/M02 A2991 RMK A01 T01161019  RH  039%=      5-min Rain = 0
KEN1 210727Z 22016KT 12/M02 A2991 RMK A01 T01161019  RH  039%=      5-min Rain = 0
KEN1 210728Z 22016KT 12/M02 A2991 RMK A01 T01161019  RH  039%=      5-min Rain = 0
KEN1 210729Z 22015KT 12/M02 A2991 RMK A01 T01161019  RH  039%=      5-min Rain = 0
KEN1 210730Z 22012KT 11/M02 A2991 RMK A01 T01131018  RH  040%=      5-min Rain = 0
KEN1 210731Z 22014KT 11/M02 A2991 RMK A01 T01111019  RH  040%=      5-min Rain = 0
KEN1 210732Z 22015KT 11/M02 A2991 RMK A01 T01101019  RH  041%=      5-min Rain = 0
KEN1 210733Z 23014G19KT 11/M02 A2991 RMK A01 T01101019  RH  040%=      5-min Rain = 0
KEN1 210734Z 23017KT 11/M02 A2991 RMK A01 T01111019  RH  040%=      5-min Rain = 0
KEN1 210735Z 23017KT 11/M02 A2991 RMK A01 T01141019  RH  040%=      5-min Rain = 0
KEN1 210736Z 23019KT 12/M02 A2991 RMK A01 T01151019  RH  039%=      5-min Rain = 0
KEN1 210737Z 23016KT 12/M02 A2991 RMK A01 T01161020  RH  039%=      5-min Rain = 0
KEN1 210738Z 23017KT 12/M02 A2991 RMK A01 T01161019  RH  039%=      5-min Rain = 0
KEN1 210739Z 22018KT 12/M02 A2991 RMK A01 T01161019  RH  039%=      5-min Rain = 0
KEN1 210740Z 22016KT 12/M02 A2991 RMK A01 T01151020  RH  039%=      5-min Rain = 0
KEN1 210741Z 22016KT 12/M02 A2991 RMK A01 T01151019  RH  039%=      5-min Rain = 0
KEN1 210742Z 22015KT 11/M02 A2991 RMK A01 T01131019  RH  040%=      5-min Rain = 0
KEN1 210743Z 23015KT 11/M02 A2991 RMK A01 T01111019  RH  040%=      5-min Rain = 0
KEN1 210744Z 22016KT 11/M02 A2991 RMK A01 T01091020  RH  040%=      5-min Rain = 0
KEN1 210745Z 23014KT 11/M02 A2991 RMK A01 T01101020  RH  040%=      5-min Rain = 0
KEN1 210746Z 23014KT 11/M02 A2992 RMK A01 T01101019  RH  041%=      5-min Rain = 0
KEN1 210747Z 22014KT 11/M02 A2991 RMK A01 T01091020  RH  041%=      5-min Rain = 0
KEN1 210748Z 23013KT 11/M02 A2991 RMK A01 T01081020  RH  041%=      5-min Rain = 0
KEN1 210749Z 22014KT 11/M02 A2991 RMK A01 T01061020  RH  041%=      5-min Rain = 0
KEN1 210750Z 22013KT 11/M02 A2991 RMK A01 T01051020  RH  042%=      5-min Rain = 0
KEN1 210751Z 22014KT 10/M02 A2991 RMK A01 T01041020  RH  042%=      5-min Rain = 0
KEN1 210752Z 22013KT 10/M02 A2991 RMK A01 T01041020  RH  042%=      5-min Rain = 0
KEN1 210753Z 22013KT 10/M02 A2991 RMK A01 T01041020  RH  042%=      5-min Rain = 0
KEN1 210754Z 22014KT 10/M02 A2991 RMK A01 T01031020  RH  042%=      5-min Rain = 0
KEN1 210755Z 22012KT 10/M02 A2991 RMK A01 T01031020  RH  042%=      5-min Rain = 0
KEN1 210756Z 22013KT 10/M02 A2991 RMK A01 T01031020  RH  042%=      5-min Rain = 0
KEN1 210757Z 22013KT 10/M02 A2991 RMK A01 T01031020  RH  042%=      5-min Rain = 0
KEN1 210758Z 22013KT 10/M02 A2991 RMK A01 T01031021  RH  042%=      5-min Rain = 0
KEN1 210759Z 22013KT 10/M02 A2991 RMK A01 T01041021  RH  042%=      5-min Rain = 0
KEN1 210800Z 22014KT 10/M02 A2991 RMK A01 T01041021  RH  041%=      5-min Rain = 0
KEN1 210801Z 22012KT 10/M02 A2991 RMK A01 T01041021  RH  041%=      5-min Rain = 0
KEN1 210802Z 22011KT 10/M02 A2991 RMK A01 T01031021  RH  042%=      5-min Rain = 0
KEN1 210803Z 22011KT 10/M02 A2991 RMK A01 T01011022  RH  042%=      5-min Rain = 0
KEN1 210804Z 22012KT 10/M02 A2991 RMK A01 T01001022  RH  043%=      5-min Rain = 0
KEN1 210805Z 22012KT 10/M02 A2991 RMK A01 T01001022  RH  043%=      5-min Rain = 0
KEN1 210806Z 22012KT 10/M02 A2991 RMK A01 T01001022  RH  043%=      5-min Rain = 0
KEN1 210807Z 23012KT 10/M02 A2991 RMK A01 T00991021  RH  043%=      5-min Rain = 0
KEN1 210808Z 23012KT 10/M02 A2991 RMK A01 T00991021  RH  043%=      5-min Rain = 0
KEN1 210809Z 22013KT 10/M02 A2991 RMK A01 T00991022  RH  043%=      5-min Rain = 0
KEN1 210810Z 22013KT 10/M02 A2991 RMK A01 T00991022  RH  043%=      5-min Rain = 0
KEN1 210811Z 22013KT 10/M02 A299 RMK A01 T00981022  RH  043%=      5-min Rain = 0
KEN1 210812Z 23013KT 10/M02 A299 RMK A01 T00981022  RH  043%=      5-min Rain = 0
KEN1 210813Z 22013KT 10/M02 A299 RMK A01 T00981022  RH  043%=      5-min Rain = 0
KEN1 210814Z 22013KT 10/M02 A299 RMK A01 T00981023  RH  043%=      5-min Rain = 0
KEN1 210815Z 22013KT 10/M02 A299 RMK A01 T00981023  RH  043%=      5-min Rain = 0
KEN1 210816Z 23012KT 10/M02 A299 RMK A01 T00981023  RH  043%=      5-min Rain = 0
KEN1 210817Z 23013KT 10/M02 A299 RMK A01 T00971024  RH  043%=      5-min Rain = 0
KEN1 210818Z 23013KT 10/M02 A299 RMK A01 T00971024  RH  043%=      5-min Rain = 0
KEN1 210819Z 23012KT 10/M02 A299 RMK A01 T00981024  RH  042%=      5-min Rain = 0
KEN1 210820Z 23012KT 10/M02 A299 RMK A01 T00971024  RH  042%=      5-min Rain = 0
KEN1 210821Z 22012KT 10/M02 A299 RMK A01 T00971024  RH  043%=      5-min Rain = 0
KEN1 210822Z 22012KT 10/M02 A299 RMK A01 T00971024  RH  043%=      5-min Rain = 0
KEN1 210823Z 22012KT 10/M03 A299 RMK A01 T00951025  RH  043%=      5-min Rain = 0
KEN1 210824Z 23011KT 09/M03 A299 RMK A01 T00941025  RH  043%=      5-min Rain = 0
KEN1 210825Z 23011KT 09/M03 A299 RMK A01 T00941025  RH  043%=      5-min Rain = 0
KEN1 210826Z 23012KT 09/M03 A299 RMK A01 T00941025  RH  043%=      5-min Rain = 0
KEN1 210827Z 23012KT 09/M03 A299 RMK A01 T00941026  RH  043%=      5-min Rain = 0
KEN1 210828Z 23011KT 09/M03 A2989 RMK A01 T00941025  RH  043%=      5-min Rain = 0
KEN1 210829Z 22010KT 09/M03 A2989 RMK A01 T00941026  RH  043%=      5-min Rain = 0
KEN1 210830Z 23011KT 09/M03 A2989 RMK A01 T00921026  RH  043%=      5-min Rain = 0
KEN1 210831Z 23010KT 09/M03 A2989 RMK A01 T00921026  RH  044%=      5-min Rain = 0
KEN1 210832Z 23010KT 09/M03 A2989 RMK A01 T00911026  RH  044%=      5-min Rain = 0
KEN1 210833Z 22009KT 09/M03 A2989 RMK A01 T00911026  RH  044%=      5-min Rain = 0
KEN1 210834Z 22009KT 09/M03 A2989 RMK A01 T00891026  RH  044%=      5-min Rain = 0
KEN1 210835Z 22009KT 09/M03 A2989 RMK A01 T00881026  RH  044%=      5-min Rain = 0
KEN1 210836Z 22009KT 09/M03 A2989 RMK A01 T00871026  RH  045%=      5-min Rain = 0
KEN1 210837Z 22008KT 09/M03 A2989 RMK A01 T00861026  RH  045%=      5-min Rain = 0
KEN1 210838Z 22008KT 09/M03 A2989 RMK A01 T00851027  RH  045%=      5-min Rain = 0
KEN1 210839Z 22008KT 09/M03 A2989 RMK A01 T00851027  RH  045%=      5-min Rain = 0
KEN1 210840Z 23008KT 08/M03 A2989 RMK A01 T00831027  RH  046%=      5-min Rain = 0
KEN1 210841Z 22009KT 08/M03 A2988 RMK A01 T00821027  RH  046%=      5-min Rain = 0
KEN1 210842Z 22009KT 08/M03 A2988 RMK A01 T00811027  RH  046%=      5-min Rain = 0
KEN1 210843Z 22009KT 08/M03 A2988 RMK A01 T00811027  RH  046%=      5-min Rain = 0
KEN1 210844Z 22009KT 08/M03 A2988 RMK A01 T00811028  RH  046%=      5-min Rain = 0
KEN1 210845Z 22009KT 08/M03 A2988 RMK A01 T00811028  RH  046%=      5-min Rain = 0
KEN1 210846Z 22009KT 08/M03 A2988 RMK A01 T00811028  RH  046%=      5-min Rain = 0
KEN1 210847Z 22010KT 08/M03 A2988 RMK A01 T00811028  RH  046%=      5-min Rain = 0
KEN1 210848Z 22010KT 08/M03 A2988 RMK A01 T00821028  RH  046%=      5-min Rain = 0
KEN1 210849Z 23011KT 08/M03 A2988 RMK A01 T00831028  RH  045%=      5-min Rain = 0
KEN1 210850Z 23010KT 09/M03 A2988 RMK A01 T00861028  RH  045%=      5-min Rain = 0
KEN1 210851Z 23010KT 09/M03 A2988 RMK A01 T00871029  RH  044%=      5-min Rain = 0
KEN1 210852Z 23011KT 09/M03 A2988 RMK A01 T00881029  RH  044%=      5-min Rain = 0
KEN1 210853Z 23010KT 09/M03 A2987 RMK A01 T00901029  RH  043%=      5-min Rain = 0
KEN1 210854Z 23011KT 09/M03 A2987 RMK A01 T00911029  RH  043%=      5-min Rain = 0
KEN1 210855Z 22010KT 09/M03 A2987 RMK A01 T00911029  RH  043%=      5-min Rain = 0
KEN1 210856Z 23009KT 09/M03 A2987 RMK A01 T00911029  RH  043%=      5-min Rain = 0
KEN1 210857Z 22009KT 09/M03 A2987 RMK A01 T00901029  RH  043%=      5-min Rain = 0
KEN1 210858Z 23010KT 09/M03 A2987 RMK A01 T00901030  RH  043%=      5-min Rain = 0
KEN1 210859Z 22008KT 09/M03 A2987 RMK A01 T00921030  RH  042%=      5-min Rain = 0
KEN1 210900Z 22009KT 09/M03 A2987 RMK A01 T00931030  RH  042%=      5-min Rain = 0
KEN1 210901Z 22009KT 09/M03 A2987 RMK A01 T00931030  RH  042%=      5-min Rain = 0
KEN1 210902Z 22006KT 09/M03 A2987 RMK A01 T00931030  RH  042%=      5-min Rain = 0
KEN1 210903Z 22007KT 09/M03 A2987 RMK A01 T00901030  RH  043%=      5-min Rain = 0
KEN1 210904Z 22006KT 09/M03 A2987 RMK A01 T00891031  RH  043%=      5-min Rain = 0
KEN1 210905Z 19005KT 09/M03 A2987 RMK A01 T00891030  RH  043%=      5-min Rain = 0
KEN1 210906Z 17004KT 09/M03 A2987 RMK A01 T00861031  RH  044%=      5-min Rain = 0
KEN1 210907Z 17004KT 08/M03 A2986 RMK A01 T00821031  RH  045%=      5-min Rain = 0
KEN1 210908Z 19005KT 08/M03 A2986 RMK A01 T00791031  RH  046%=      5-min Rain = 0
KEN1 210909Z 17005KT 08/M03 A2986 RMK A01 T00781031  RH  046%=      5-min Rain = 0
KEN1 210910Z 17005KT 08/M03 A2986 RMK A01 T00771030  RH  047%=      5-min Rain = 0
KEN1 210911Z 17006KT 08/M03 A2986 RMK A01 T00771029  RH  047%=      5-min Rain = 0
KEN1 210912Z 18006KT 08/M03 A2986 RMK A01 T00771029  RH  047%=      5-min Rain = 0
KEN1 210913Z 15005KT 08/M03 A2986 RMK A01 T00771029  RH  047%=      5-min Rain = 0
KEN1 210914Z 16007KT 08/M03 A2986 RMK A01 T00771028  RH  047%=      5-min Rain = 0
KEN1 210915Z 17006KT 07/M03 A2986 RMK A01 T00741028  RH  048%=      5-min Rain = 0
KEN1 210916Z 18006KT 07/M03 A2986 RMK A01 T00721028  RH  049%=      5-min Rain = 0
KEN1 210917Z 19006KT 07/M03 A2986 RMK A01 T00721029  RH  048%=      5-min Rain = 0
KEN1 210918Z 18005KT 08/M03 A2986 RMK A01 T00751028  RH  048%=      5-min Rain = 0
KEN1 210919Z 19006KT 08/M03 A2986 RMK A01 T00751028  RH  048%=      5-min Rain = 0
KEN1 210920Z 19007KT 08/M03 A2986 RMK A01 T00751029  RH  048%=      5-min Rain = 0
KEN1 210921Z 18005KT 08/M03 A2986 RMK A01 T00761028  RH  047%=      5-min Rain = 0
KEN1 210922Z 19006KT 08/M03 A2986 RMK A01 T00761028  RH  048%=      5-min Rain = 0
KEN1 210923Z 20006KT 08/M03 A2986 RMK A01 T00761028  RH  048%=      5-min Rain = 0
KEN1 210924Z 20007KT 08/M03 A2986 RMK A01 T00751028  RH  048%=      5-min Rain = 0
KEN1 210925Z 20007KT 08/M03 A2986 RMK A01 T00761029  RH  048%=      5-min Rain = 0
KEN1 210926Z 21007KT 08/M03 A2986 RMK A01 T00761028  RH  047%=      5-min Rain = 0
KEN1 210927Z 21008KT 08/M03 A2986 RMK A01 T00781028  RH  047%=      5-min Rain = 0
KEN1 210928Z 21009KT 08/M03 A2985 RMK A01 T00811027  RH  046%=      5-min Rain = 0
KEN1 210929Z 21010KT 09/M03 A2985 RMK A01 T00861027  RH  045%=      5-min Rain = 0
KEN1 210930Z 21010KT 09/M03 A2985 RMK A01 T00881027  RH  044%=      5-min Rain = 0
KEN1 210931Z 21010KT 09/M03 A2985 RMK A01 T00891027  RH  044%=      5-min Rain = 0
KEN1 210932Z 21011KT 09/M03 A2985 RMK A01 T00891028  RH  044%=      5-min Rain = 0
KEN1 210933Z 21011KT 09/M03 A2985 RMK A01 T00901028  RH  043%=      5-min Rain = 0
KEN1 210934Z 21011KT 09/M03 A2985 RMK A01 T00901028  RH  043%=      5-min Rain = 0
KEN1 210935Z 21011KT 09/M03 A2985 RMK A01 T00901028  RH  043%=      5-min Rain = 0
KEN1 210936Z 21012KT 09/M03 A2985 RMK A01 T00901029  RH  043%=      5-min Rain = 0
KEN1 210937Z 21011KT 09/M03 A2985 RMK A01 T00911029  RH  043%=      5-min Rain = 0
KEN1 210938Z 21011KT 09/M03 A2985 RMK A01 T00921029  RH  043%=      5-min Rain = 0
KEN1 210939Z 21012KT 09/M03 A2985 RMK A01 T00921029  RH  042%=      5-min Rain = 0
KEN1 210940Z 21012KT 09/M03 A2985 RMK A01 T00931030  RH  042%=      5-min Rain = 0
KEN1 210941Z 22012KT 09/M03 A2985 RMK A01 T00941029  RH  042%=      5-min Rain = 0
KEN1 210942Z 21012KT 09/M03 A2985 RMK A01 T00941030  RH  042%=      5-min Rain = 0
KEN1 210943Z 22012KT 09/M03 A2985 RMK A01 T00941029  RH  042%=      5-min Rain = 0
KEN1 210944Z 22013KT 10/M03 A2985 RMK A01 T00951030  RH  041%=      5-min Rain = 0
KEN1 210945Z 21012KT 10/M03 A2985 RMK A01 T00961030  RH  041%=      5-min Rain = 0
KEN1 210946Z 21012KT 10/M03 A2985 RMK A01 T00961031  RH  041%=      5-min Rain = 0
KEN1 210947Z 21012KT 10/M03 A2985 RMK A01 T00961030  RH  041%=      5-min Rain = 0
KEN1 210948Z 21012KT 10/M03 A2985 RMK A01 T00961031  RH  041%=      5-min Rain = 0
KEN1 210949Z 21013KT 10/M03 A2985 RMK A01 T00961030  RH  041%=      5-min Rain = 0
KEN1 210950Z 22013KT 10/M03 A2985 RMK A01 T00961031  RH  040%=      5-min Rain = 0
KEN1 210951Z 22013KT 10/M03 A2985 RMK A01 T00981032  RH  040%=      5-min Rain = 0
KEN1 210952Z 21013KT 10/M03 A2985 RMK A01 T01001031  RH  040%=      5-min Rain = 0
KEN1 210953Z 21012KT 10/M03 A2985 RMK A01 T01001032  RH  039%=      5-min Rain = 0
KEN1 210954Z 21012KT 10/M03 A2985 RMK A01 T00991032  RH  039%=      5-min Rain = 0
KEN1 210955Z 21012KT 10/M03 A2985 RMK A01 T00991032  RH  039%=      5-min Rain = 0
KEN1 210956Z 22012KT 10/M03 A2985 RMK A01 T00991032  RH  039%=      5-min Rain = 0
KEN1 210957Z 22011KT 10/M03 A2985 RMK A01 T00991033  RH  039%=      5-min Rain = 0
KEN1 210958Z 21010KT 10/M03 A2985 RMK A01 T00991033  RH  039%=      5-min Rain = 0
KEN1 210959Z 20009KT 10/M03 A2985 RMK A01 T00971032  RH  040%=      5-min Rain = 0
KEN1 211000Z 18009KT 09/M03 A2985 RMK A01 T00941032  RH  041%=      5-min Rain = 0
KEN1 211001Z 18009KT 09/M03 A2985 RMK A01 T00891031  RH  043%=      5-min Rain = 0
KEN1 211002Z 18010KT 09/M03 A2985 RMK A01 T00851031  RH  044%=      5-min Rain = 0
KEN1 211003Z 18010KT 08/M03 A2985 RMK A01 T00821030  RH  045%=      5-min Rain = 0
KEN1 211004Z 18009KT 08/M03 A2985 RMK A01 T00801030  RH  046%=      5-min Rain = 0
KEN1 211005Z 18009KT 08/M03 A2984 RMK A01 T00781030  RH  046%=      5-min Rain = 0
KEN1 211006Z 19010KT 08/M03 A2984 RMK A01 T00771029  RH  047%=      5-min Rain = 0
KEN1 211007Z 19009KT 08/M03 A2984 RMK A01 T00761029  RH  047%=      5-min Rain = 0
KEN1 211008Z 19009KT 08/M03 A2984 RMK A01 T00761030  RH  047%=      5-min Rain = 0
KEN1 211009Z 20009KT 08/M03 A2984 RMK A01 T00771029  RH  047%=      5-min Rain = 0
KEN1 211010Z 20009KT 08/M03 A2984 RMK A01 T00781030  RH  046%=      5-min Rain = 0
KEN1 211011Z 20009KT 08/M03 A2984 RMK A01 T00791030  RH  046%=      5-min Rain = 0
KEN1 211012Z 20008KT 08/M03 A2984 RMK A01 T00791031  RH  046%=      5-min Rain = 0
KEN1 211013Z 20008KT 08/M03 A2984 RMK A01 T00791031  RH  046%=      5-min Rain = 0
KEN1 211014Z 19008KT 08/M03 A2984 RMK A01 T00791031  RH  046%=      5-min Rain = 0
KEN1 211015Z 19008KT 08/M03 A2984 RMK A01 T00781031  RH  046%=      5-min Rain = 0
KEN1 211016Z 19007KT 08/M03 A2984 RMK A01 T00771031  RH  046%=      5-min Rain = 0
KEN1 211017Z 19007KT 08/M03 A2984 RMK A01 T00761031  RH  047%=      5-min Rain = 0
KEN1 211018Z 19007KT 08/M03 A2984 RMK A01 T00751032  RH  047%=      5-min Rain = 0
KEN1 211019Z 18007KT 07/M03 A2984 RMK A01 T00741032  RH  047%=      5-min Rain = 0
KEN1 211020Z 17008KT 07/M03 A2984 RMK A01 T00731032  RH  047%=      5-min Rain = 0
KEN1 211021Z 18009KT 07/M03 A2984 RMK A01 T00721033  RH  047%=      5-min Rain = 0
KEN1 211022Z 18009KT 07/M03 A2984 RMK A01 T00721033  RH  047%=      5-min Rain = 0
KEN1 211023Z 19009KT 07/M03 A2984 RMK A01 T00731032  RH  047%=      5-min Rain = 0
KEN1 211024Z 18009KT 07/M03 A2983 RMK A01 T00741032  RH  047%=      5-min Rain = 0
KEN1 211025Z 18008KT 07/M03 A2983 RMK A01 T00741031  RH  047%=      5-min Rain = 0
KEN1 211026Z 18009KT 07/M03 A2983 RMK A01 T00741031  RH  047%=      5-min Rain = 0
KEN1 211027Z 18010KT 07/M03 A2983 RMK A01 T00731032  RH  047%=      5-min Rain = 0
KEN1 211028Z 18010KT 07/M03 A2983 RMK A01 T00731032  RH  047%=      5-min Rain = 0
KEN1 211029Z 19011KT 07/M03 A2983 RMK A01 T00741033  RH  047%=      5-min Rain = 0
KEN1 211030Z 19011KT 08/M03 A2983 RMK A01 T00781033  RH  045%=      5-min Rain = 0
KEN1 211031Z 20012KT 08/M03 A2983 RMK A01 T00831033  RH  044%=      5-min Rain = 0
KEN1 211032Z 20012KT 09/M03 A2983 RMK A01 T00881033  RH  042%=      5-min Rain = 0
KEN1 211033Z 20011KT 09/M03 A2983 RMK A01 T00901034  RH  041%=      5-min Rain = 0
KEN1 211034Z 19010KT 09/M04 A2983 RMK A01 T00931035  RH  040%=      5-min Rain = 0
KEN1 211035Z 20010KT 09/M04 A2983 RMK A01 T00941035  RH  040%=      5-min Rain = 0
KEN1 211036Z 20010KT 10/M04 A2983 RMK A01 T00951037  RH  039%=      5-min Rain = 0
KEN1 211037Z 20010KT 10/M04 A2983 RMK A01 T00971037  RH  039%=      5-min Rain = 0
KEN1 211038Z 20010KT 10/M04 A2983 RMK A01 T00981037  RH  038%=      5-min Rain = 0
KEN1 211039Z 20011KT 10/M04 A2983 RMK A01 T00991038  RH  038%=      5-min Rain = 0
KEN1 211040Z 20010KT 10/M04 A2983 RMK A01 T01011038  RH  037%=      5-min Rain = 0
KEN1 211041Z 19009KT 10/M04 A2983 RMK A01 T01011038  RH  037%=      5-min Rain = 0
KEN1 211042Z 19009KT 10/M04 A2983 RMK A01 T01001038  RH  038%=      5-min Rain = 0
KEN1 211043Z 19009KT 10/M04 A2983 RMK A01 T00991038  RH  038%=      5-min Rain = 0
KEN1 211044Z 18009KT 10/M04 A2983 RMK A01 T00981038  RH  038%=      5-min Rain = 0
KEN1 211045Z 19009KT 10/M04 A2983 RMK A01 T00971039  RH  038%=      5-min Rain = 0
KEN1 211046Z 18008KT 10/M04 A2983 RMK A01 T00981039  RH  038%=      5-min Rain = 0
KEN1 211047Z 18008KT 10/M04 A2983 RMK A01 T00971039  RH  038%=      5-min Rain = 0
KEN1 211048Z 17007KT 10/M04 A2983 RMK A01 T00971039  RH  038%=      5-min Rain = 0
KEN1 211049Z 18007KT 09/M04 A2982 RMK A01 T00941039  RH  039%=      5-min Rain = 0
KEN1 211050Z 18007KT 09/M04 A2982 RMK A01 T00931040  RH  039%=      5-min Rain = 0
KEN1 211051Z 19006KT 10/M04 A2982 RMK A01 T00951040  RH  039%=      5-min Rain = 0
KEN1 211052Z 18006KT 10/M04 A2982 RMK A01 T00961041  RH  038%=      5-min Rain = 0
KEN1 211053Z 19008KT 10/M04 A2982 RMK A01 T00981041  RH  037%=      5-min Rain = 0
KEN1 211054Z 19008KT 10/M04 A2982 RMK A01 T00991041  RH  037%=      5-min Rain = 0
KEN1 211055Z 19009KT 10/M04 A2982 RMK A01 T01011041  RH  037%=      5-min Rain = 0
KEN1 211056Z 19008KT 10/M04 A2982 RMK A01 T01041041  RH  036%=      5-min Rain = 0
KEN1 211057Z 19008KT 11/M04 A2982 RMK A01 T01051042  RH  035%=      5-min Rain = 0
KEN1 211058Z 19008KT 11/M04 A2982 RMK A01 T01051042  RH  035%=      5-min Rain = 0
KEN1 211059Z 19008KT 11/M04 A2982 RMK A01 T01051042  RH  035%=      5-min Rain = 0
KEN1 211100Z 19009KT 10/M04 A2982 RMK A01 T01041042  RH  035%=      5-min Rain = 0
KEN1 211101Z 19008KT 10/M04 A2982 RMK A01 T01041042  RH  036%=      5-min Rain = 0
KEN1 211102Z 19007KT 10/M04 A2982 RMK A01 T01031042  RH  036%=      5-min Rain = 0
KEN1 211103Z 19008KT 10/M04 A2982 RMK A01 T01031041  RH  036%=      5-min Rain = 0
KEN1 211104Z 20007KT 10/M04 A2982 RMK A01 T01011042  RH  036%=      5-min Rain = 0
KEN1 211105Z 20007KT 10/M04 A2982 RMK A01 T01011042  RH  036%=      5-min Rain = 0
KEN1 211106Z 20007KT 10/M04 A2982 RMK A01 T01001041  RH  037%=      5-min Rain = 0
KEN1 211107Z 21008KT 10/M04 A2982 RMK A01 T00991041  RH  037%=      5-min Rain = 0
KEN1 211108Z 21008KT 10/M04 A2982 RMK A01 T00981041  RH  037%=      5-min Rain = 0
KEN1 211109Z 22008KT 10/M04 A2982 RMK A01 T00971040  RH  038%=      5-min Rain = 0
KEN1 211110Z 22011KT 10/M04 A2982 RMK A01 T00971040  RH  038%=      5-min Rain = 0
KEN1 211111Z 22009KT 10/M04 A2982 RMK A01 T00981040  RH  038%=      5-min Rain = 0
KEN1 211112Z 23009KT 10/M04 A2982 RMK A01 T00971040  RH  038%=      5-min Rain = 0
KEN1 211113Z 23010KT 10/M04 A2982 RMK A01 T00961040  RH  038%=      5-min Rain = 0
KEN1 211114Z 23011KT 10/M04 A2982 RMK A01 T00951040  RH  038%=      5-min Rain = 0
KEN1 211115Z 23011KT 09/M04 A2982 RMK A01 T00941039  RH  039%=      5-min Rain = 0
KEN1 211116Z 23012KT 09/M04 A2982 RMK A01 T00931039  RH  039%=      5-min Rain = 0
KEN1 211117Z 23012KT 09/M04 A2982 RMK A01 T00931039  RH  039%=      5-min Rain = 0
KEN1 211118Z 23012KT 09/M04 A2982 RMK A01 T00931039  RH  039%=      5-min Rain = 0
KEN1 211119Z 23012KT 09/M04 A2982 RMK A01 T00921039  RH  039%=      5-min Rain = 0
KEN1 211120Z 23012KT 09/M04 A2982 RMK A01 T00921039  RH  039%=      5-min Rain = 0
KEN1 211121Z 23012KT 09/M04 A2982 RMK A01 T00921040  RH  039%=      5-min Rain = 0
KEN1 211122Z 23012KT 09/M04 A2982 RMK A01 T00931040  RH  039%=      5-min Rain = 0
KEN1 211123Z 23012KT 09/M04 A2982 RMK A01 T00941040  RH  039%=      5-min Rain = 0
KEN1 211124Z 23012KT 09/M04 A2982 RMK A01 T00941040  RH  039%=      5-min Rain = 0
KEN1 211125Z 23013KT 09/M04 A2982 RMK A01 T00941041  RH  038%=      5-min Rain = 0
KEN1 211126Z 23013KT 10/M04 A2982 RMK A01 T00951042  RH  038%=      5-min Rain = 0
KEN1 211127Z 23012KT 10/M04 A2982 RMK A01 T00961043  RH  037%=      5-min Rain = 0
KEN1 211128Z 23012KT 10/M04 A2982 RMK A01 T00961042  RH  037%=      5-min Rain = 0
KEN1 211129Z 23013KT 10/M04 A2982 RMK A01 T00961043  RH  037%=      5-min Rain = 0
KEN1 211130Z 23011KT 10/M04 A2982 RMK A01 T00961043  RH  037%=      5-min Rain = 0
KEN1 211131Z 23011KT 10/M04 A2982 RMK A01 T00961043  RH  037%=      5-min Rain = 0
KEN1 211132Z 23011KT 10/M04 A2982 RMK A01 T00951043  RH  037%=      5-min Rain = 0
KEN1 211133Z 24010KT 09/M04 A2982 RMK A01 T00941043  RH  038%=      5-min Rain = 0
KEN1 211134Z 24010KT 09/M04 A2982 RMK A01 T00941043  RH  038%=      5-min Rain = 0
KEN1 211135Z 24009KT 09/M04 A2982 RMK A01 T00921044  RH  038%=      5-min Rain = 0
KEN1 211136Z 24010KT 09/M04 A2982 RMK A01 T00921044  RH  038%=      5-min Rain = 0
KEN1 211137Z 24010KT 09/M05 A2982 RMK A01 T00921045  RH  038%=      5-min Rain = 0
KEN1 211138Z 25009KT 09/M05 A2982 RMK A01 T00931045  RH  037%=      5-min Rain = 0
KEN1 211139Z 25010KT 09/M05 A2982 RMK A01 T00941046  RH  037%=      5-min Rain = 0
KEN1 211140Z 26011KT 10/M05 A2982 RMK A01 T00951046  RH  037%=      5-min Rain = 0
KEN1 211141Z 25011KT 10/M05 A2982 RMK A01 T00961047  RH  036%=      5-min Rain = 0
KEN1 211142Z 25011KT 10/M05 A2982 RMK A01 T00991048  RH  035%=      5-min Rain = 0
KEN1 211143Z 26012KT 10/M05 A2982 RMK A01 T01001049  RH  035%=      5-min Rain = 0
KEN1 211144Z 25012KT 10/M05 A2982 RMK A01 T01011049  RH  034%=      5-min Rain = 0
KEN1 211145Z 25014KT 10/M05 A2982 RMK A01 T01011050  RH  034%=      5-min Rain = 0
KEN1 211146Z 25013KT 10/M05 A2982 RMK A01 T01031050  RH  033%=      5-min Rain = 0
KEN1 211147Z 26016KT 10/M05 A2982 RMK A01 T01041050  RH  033%=      5-min Rain = 0
KEN1 211148Z 25016KT 11/M05 A2982 RMK A01 T01051051  RH  033%=      5-min Rain = 0
KEN1 211149Z 25015KT 11/M05 A2982 RMK A01 T01061051  RH  033%=      5-min Rain = 0
KEN1 211150Z 25015KT 11/M05 A2982 RMK A01 T01071051  RH  033%=      5-min Rain = 0
KEN1 211151Z 25016KT 11/M05 A2982 RMK A01 T01061051  RH  033%=      5-min Rain = 0
KEN1 211152Z 25017KT 11/M05 A2981 RMK A01 T01061052  RH  033%=      5-min Rain = 0
KEN1 211153Z 25016KT 11/M05 A2981 RMK A01 T01061052  RH  032%=      5-min Rain = 0
KEN1 211154Z 25015KT 11/M05 A2981 RMK A01 T01061052  RH  032%=      5-min Rain = 0
KEN1 211155Z 25015KT 11/M05 A2981 RMK A01 T01061052  RH  032%=      5-min Rain = 0
KEN1 211156Z 25015KT 11/M05 A2981 RMK A01 T01061052  RH  033%=      5-min Rain = 0
KEN1 211157Z 25014KT 11/M05 A2981 RMK A01 T01051052  RH  033%=      5-min Rain = 0
KEN1 211158Z 24013KT 10/M05 A2981 RMK A01 T01041052  RH  033%=      5-min Rain = 0
KEN1 211159Z 24014KT 10/M05 A2981 RMK A01 T01031052  RH  033%=      5-min Rain = 0
KEN1 211200Z 24013KT 10/M05 A2981 RMK A01 T01021052  RH  033%=      5-min Rain = 0
KEN1 211201Z 24012KT 10/M05 A2981 RMK A01 T01021052  RH  033%=      5-min Rain = 0
KEN1 211202Z 24012KT 10/M05 A2981 RMK A01 T01011052  RH  034%=      5-min Rain = 0
KEN1 211203Z 24012KT 10/M05 A2981 RMK A01 T01001052  RH  034%=      5-min Rain = 0
KEN1 211204Z 24010KT 10/M05 A2981 RMK A01 T00991052  RH  034%=      5-min Rain = 0
KEN1 211205Z 24011KT 10/M05 A2981 RMK A01 T00971052  RH  035%=      5-min Rain = 0
KEN1 211206Z 24010KT 10/M05 A2981 RMK A01 T00961052  RH  035%=      5-min Rain = 0
KEN1 211207Z 24010KT 10/M05 A2981 RMK A01 T00951052  RH  035%=      5-min Rain = 0
KEN1 211208Z 24010KT 09/M05 A2981 RMK A01 T00941052  RH  035%=      5-min Rain = 0
KEN1 211209Z 24010KT 09/M05 A2981 RMK A01 T00931052  RH  036%=      5-min Rain = 0
KEN1 211210Z 24010KT 09/M05 A2981 RMK A01 T00921052  RH  036%=      5-min Rain = 0
KEN1 211211Z 24011KT 09/M05 A2981 RMK A01 T00921052  RH  036%=      5-min Rain = 0
KEN1 211212Z 24010KT 09/M05 A2981 RMK A01 T00911052  RH  036%=      5-min Rain = 0
KEN1 211213Z 24010KT 09/M05 A2981 RMK A01 T00911052  RH  036%=      5-min Rain = 0
KEN1 211214Z 24010KT 09/M05 A2981 RMK A01 T00911052  RH  036%=      5-min Rain = 0
KEN1 211215Z 24010KT 09/M05 A2981 RMK A01 T00901052  RH  036%=      5-min Rain = 0
KEN1 211216Z 24009KT 09/M05 A2982 RMK A01 T00901052  RH  036%=      5-min Rain = 0
KEN1 211217Z 24009KT 09/M05 A2982 RMK A01 T00881052  RH  037%=      5-min Rain = 0
KEN1 211218Z 25008KT 09/M05 A2982 RMK A01 T00871052  RH  037%=      5-min Rain = 0
KEN1 211219Z 25008KT 09/M05 A2982 RMK A01 T00861052  RH  037%=      5-min Rain = 0
KEN1 211220Z 25009KT 09/M05 A2982 RMK A01 T00851052  RH  037%=      5-min Rain = 0
KEN1 211221Z 25008KT 08/M05 A2982 RMK A01 T00841052  RH  038%=      5-min Rain = 0
KEN1 211222Z 25007KT 08/M05 A2981 RMK A01 T00841052  RH  038%=      5-min Rain = 0
KEN1 211223Z 25007KT 08/M05 A2981 RMK A01 T00831052  RH  038%=      5-min Rain = 0
KEN1 211224Z 26008KT 08/M05 A2981 RMK A01 T00821052  RH  038%=      5-min Rain = 0
KEN1 211225Z 25007KT 08/M05 A2981 RMK A01 T00821052  RH  038%=      5-min Rain = 0
KEN1 211226Z 25008KT 08/M05 A2981 RMK A01 T00801052  RH  039%=      5-min Rain = 0
KEN1 211227Z 25009KT 08/M05 A2981 RMK A01 T00791052  RH  039%=      5-min Rain = 0
KEN1 211228Z 25009KT 08/M05 A2981 RMK A01 T00791053  RH  039%=      5-min Rain = 0
KEN1 211229Z 25009KT 08/M05 A2981 RMK A01 T00791052  RH  039%=      5-min Rain = 0
KEN1 211230Z 25009KT 08/M05 A2981 RMK A01 T00791052  RH  039%=      5-min Rain = 0
KEN1 211231Z 25009KT 08/M05 A2981 RMK A01 T00801052  RH  039%=      5-min Rain = 0
KEN1 211232Z 24009KT 08/M05 A2981 RMK A01 T00801052  RH  039%=      5-min Rain = 0
KEN1 211233Z 24009KT 08/M05 A2981 RMK A01 T00801051  RH  039%=      5-min Rain = 0
KEN1 211234Z 24010KT 08/M05 A2981 RMK A01 T00801052  RH  039%=      5-min Rain = 0
KEN1 211235Z 25010KT 08/M05 A2981 RMK A01 T00801052  RH  039%=      5-min Rain = 0
KEN1 211236Z 24010KT 08/M05 A2981 RMK A01 T00811052  RH  039%=      5-min Rain = 0
KEN1 211237Z 25011KT 08/M05 A2981 RMK A01 T00811052  RH  038%=      5-min Rain = 0
KEN1 211238Z 25012KT 08/M05 A2981 RMK A01 T00821052  RH  038%=      5-min Rain = 0
KEN1 211239Z 25011KT 08/M05 A2981 RMK A01 T00831052  RH  038%=      5-min Rain = 0
KEN1 211240Z 25010KT 08/M05 A2981 RMK A01 T00831052  RH  038%=      5-min Rain = 0
KEN1 211241Z 26011KT 08/M05 A2981 RMK A01 T00841052  RH  038%=      5-min Rain = 0
KEN1 211242Z 25010KT 09/M05 A2981 RMK A01 T00851052  RH  038%=      5-min Rain = 0
KEN1 211243Z 25009KT 08/M05 A2981 RMK A01 T00841052  RH  038%=      5-min Rain = 0
KEN1 211244Z 25008KT 08/M05 A298 RMK A01 T00841052  RH  038%=      5-min Rain = 0
KEN1 211245Z 26008KT 08/M05 A2981 RMK A01 T00831052  RH  038%=      5-min Rain = 0
KEN1 211246Z 26008KT 08/M05 A2981 RMK A01 T00821052  RH  038%=      5-min Rain = 0
KEN1 211247Z 26007KT 08/M05 A2981 RMK A01 T00811052  RH  039%=      5-min Rain = 0
KEN1 211248Z 26007KT 08/M05 A2981 RMK A01 T00781052  RH  039%=      5-min Rain = 0
KEN1 211249Z 27007KT 08/M05 A2981 RMK A01 T00761052  RH  040%=      5-min Rain = 0
KEN1 211250Z 26007KT 08/M05 A2981 RMK A01 T00751052  RH  040%=      5-min Rain = 0
KEN1 211251Z 26006KT 07/M05 A298 RMK A01 T00741052  RH  040%=      5-min Rain = 0
KEN1 211252Z 26006KT 07/M05 A298 RMK A01 T00741052  RH  040%=      5-min Rain = 0
KEN1 211253Z 25006KT 07/M05 A298 RMK A01 T00741052  RH  040%=      5-min Rain = 0
KEN1 211254Z 25006KT 08/M05 A298 RMK A01 T00751053  RH  040%=      5-min Rain = 0
KEN1 211255Z 26006KT 08/M05 A298 RMK A01 T00761052  RH  040%=      5-min Rain = 0
KEN1 211256Z 25006KT 08/M05 A298 RMK A01 T00771053  RH  039%=      5-min Rain = 0
KEN1 211257Z 25004KT 08/M05 A298 RMK A01 T00771054  RH  039%=      5-min Rain = 0
KEN1 211258Z 26004KT 08/M05 A298 RMK A01 T00771053  RH  039%=      5-min Rain = 0
KEN1 211259Z 25003KT 08/M05 A298 RMK A01 T00771054  RH  039%=      5-min Rain = 0
KEN1 211300Z 24002KT 08/M05 A298 RMK A01 T00771054  RH  039%=      5-min Rain = 0
KEN1 211301Z 24003KT 08/M06 A298 RMK A01 T00771055  RH  039%=      5-min Rain = 0
KEN1 211302Z 23003KT 08/M06 A298 RMK A01 T00771056  RH  039%=      5-min Rain = 0
KEN1 211303Z 21003KT 08/M06 A2979 RMK A01 T00761056  RH  038%=      5-min Rain = 0
KEN1 211304Z 21002KT 08/M06 A298 RMK A01 T00751056  RH  039%=      5-min Rain = 0
KEN1 211305Z 21002KT 07/M06 A298 RMK A01 T00741057  RH  039%=      5-min Rain = 0
KEN1 211306Z 20002KT 07/M06 A298 RMK A01 T00741058  RH  039%=      5-min Rain = 0
KEN1 211307Z 22001KT 07/M06 A298 RMK A01 T00741059  RH  039%=      5-min Rain = 0
KEN1 211308Z 19001KT 07/M06 A298 RMK A01 T00741058  RH  039%=      5-min Rain = 0
KEN1 211309Z 19002KT 08/M06 A298 RMK A01 T00751059  RH  038%=      5-min Rain = 0
KEN1 211310Z 21004KT 08/M06 A2979 RMK A01 T00771060  RH  037%=      5-min Rain = 0
KEN1 211311Z 22005KT 08/M06 A298 RMK A01 T00801059  RH  037%=      5-min Rain = 0
KEN1 211312Z 22005KT 08/M06 A2979 RMK A01 T00811057  RH  037%=      5-min Rain = 0
KEN1 211313Z 21006KT 08/M06 A2979 RMK A01 T00791058  RH  037%=      5-min Rain = 0
KEN1 211314Z 21005KT 08/M06 A2979 RMK A01 T00781057  RH  038%=      5-min Rain = 0
KEN1 211315Z 21005KT 08/M06 A2979 RMK A01 T00771057  RH  038%=      5-min Rain = 0
KEN1 211316Z 21005KT 08/M06 A2979 RMK A01 T00761056  RH  039%=      5-min Rain = 0
KEN1 211317Z 22005KT 08/M06 A2979 RMK A01 T00751056  RH  039%=      5-min Rain = 0
KEN1 211318Z 21005KT 07/M06 A2979 RMK A01 T00741057  RH  039%=      5-min Rain = 0
KEN1 211319Z 21005KT 07/M06 A2979 RMK A01 T00741057  RH  039%=      5-min Rain = 0
KEN1 211320Z 21005KT 07/M06 A2979 RMK A01 T00741057  RH  039%=      5-min Rain = 0
KEN1 211321Z 20006KT 08/M06 A2979 RMK A01 T00751057  RH  039%=      5-min Rain = 0
KEN1 211322Z 22006KT 08/M06 A2979 RMK A01 T00761058  RH  038%=      5-min Rain = 0
KEN1 211323Z 22006KT 08/M06 A2979 RMK A01 T00761057  RH  038%=      5-min Rain = 0
KEN1 211324Z 22006KT 08/M06 A2979 RMK A01 T00751057  RH  038%=      5-min Rain = 0
KEN1 211325Z 22007KT 08/M06 A2979 RMK A01 T00751057  RH  039%=      5-min Rain = 0
KEN1 211326Z 22007KT 07/M06 A2979 RMK A01 T00741057  RH  039%=      5-min Rain = 0
KEN1 211327Z 21007KT 07/M06 A2979 RMK A01 T00741057  RH  039%=      5-min Rain = 0
KEN1 211328Z 21007KT 07/M06 A2979 RMK A01 T00741057  RH  039%=      5-min Rain = 0
KEN1 211329Z 22007KT 07/M06 A2979 RMK A01 T00731057  RH  039%=      5-min Rain = 0
KEN1 211330Z 22007KT 07/M06 A2979 RMK A01 T00731058  RH  039%=      5-min Rain = 0
KEN1 211331Z 22009KT 07/M06 A2979 RMK A01 T00731058  RH  039%=      5-min Rain = 0
KEN1 211332Z 22009KT 08/M06 A2979 RMK A01 T00751059  RH  038%=      5-min Rain = 0
KEN1 211333Z 22009KT 08/M06 A2979 RMK A01 T00761058  RH  038%=      5-min Rain = 0
KEN1 211334Z 22009KT 08/M06 A2979 RMK A01 T00761058  RH  038%=      5-min Rain = 0
KEN1 211335Z 22014KT 08/M06 A2979 RMK A01 T00791059  RH  037%=      5-min Rain = 0
KEN1 211336Z 23010KT 09/M06 A2979 RMK A01 T00861061  RH  035%=      5-min Rain = 0
KEN1 211337Z 22011KT 09/M06 A2979 RMK A01 T00891061  RH  034%=      5-min Rain = 0
KEN1 211338Z 22010KT 09/M06 A2979 RMK A01 T00891062  RH  034%=      5-min Rain = 0
KEN1 211339Z 22009KT 09/M06 A2979 RMK A01 T00871061  RH  034%=      5-min Rain = 0
KEN1 211340Z 22009KT 09/M06 A2979 RMK A01 T00861061  RH  035%=      5-min Rain = 0
KEN1 211341Z 22011KT 08/M06 A2979 RMK A01 T00831061  RH  035%=      5-min Rain = 0
KEN1 211342Z 22010KT 08/M06 A2979 RMK A01 T00811061  RH  036%=      5-min Rain = 0
KEN1 211343Z 22011KT 08/M06 A2979 RMK A01 T00801061  RH  036%=      5-min Rain = 0
KEN1 211344Z 21013KT 08/M06 A2979 RMK A01 T00791062  RH  036%=      5-min Rain = 0
KEN1 211345Z 21012KT 08/M06 A2979 RMK A01 T00781062  RH  036%=      5-min Rain = 0
KEN1 211346Z 22012KT 08/M06 A2979 RMK A01 T00791063  RH  036%=      5-min Rain = 0
KEN1 211347Z 21011KT 08/M06 A2979 RMK A01 T00791062  RH  036%=      5-min Rain = 0
KEN1 211348Z 22011KT 08/M06 A2979 RMK A01 T00781062  RH  036%=      5-min Rain = 0
KEN1 211349Z 21011KT 08/M06 A2979 RMK A01 T00781063  RH  036%=      5-min Rain = 0
KEN1 211350Z 22011KT 08/M06 A2979 RMK A01 T00781063  RH  036%=      5-min Rain = 0
KEN1 211351Z 22012KT 08/M06 A2979 RMK A01 T00761064  RH  036%=      5-min Rain = 0
KEN1 211352Z 22013KT 08/M07 A2979 RMK A01 T00761065  RH  036%=      5-min Rain = 0
KEN1 211353Z 22013KT 08/M07 A2979 RMK A01 T00821066  RH  034%=      5-min Rain = 0
KEN1 211354Z 22012KT 09/M07 A2979 RMK A01 T00871066  RH  033%=      5-min Rain = 0
KEN1 211355Z 22014KT 09/M07 A2979 RMK A01 T00901068  RH  032%=      5-min Rain = 0
KEN1 211356Z 22013KT 10/M07 A2979 RMK A01 T00951067  RH  031%=      5-min Rain = 0
KEN1 211357Z 23012KT 10/M07 A2979 RMK A01 T00971067  RH  031%=      5-min Rain = 0
KEN1 211358Z 22012KT 10/M07 A2979 RMK A01 T00971067  RH  031%=      5-min Rain = 0
KEN1 211359Z 22012KT 10/M07 A2979 RMK A01 T00961068  RH  031%=      5-min Rain = 0
KEN1 211400Z 22014KT 10/M07 A2979 RMK A01 T00961068  RH  031%=      5-min Rain = 0
KEN1 211401Z 22014KT 10/M07 A2979 RMK A01 T00971069  RH  030%=      5-min Rain = 0
KEN1 211402Z 22014KT 10/M07 A2979 RMK A01 T00991069  RH  030%=      5-min Rain = 0
KEN1 211403Z 22015KT 10/M07 A2979 RMK A01 T00991070  RH  030%=      5-min Rain = 0
KEN1 211404Z 22012KT 10/M07 A2979 RMK A01 T01001069  RH  030%=      5-min Rain = 0
KEN1 211405Z 21014KT 10/M07 A2979 RMK A01 T01001070  RH  030%=      5-min Rain = 0
KEN1 211406Z 22014KT 10/M07 A2979 RMK A01 T01001071  RH  029%=      5-min Rain = 0
KEN1 211407Z 22013KT 10/M07 A2979 RMK A01 T00991070  RH  030%=      5-min Rain = 0
KEN1 211408Z 22013KT 10/M07 A2979 RMK A01 T00971071  RH  030%=      5-min Rain = 0
KEN1 211409Z 22013KT 10/M07 A2979 RMK A01 T00971071  RH  030%=      5-min Rain = 0
KEN1 211410Z 22013KT 10/M07 A2979 RMK A01 T00981070  RH  030%=      5-min Rain = 0
KEN1 211411Z 22011KT 10/M07 A2979 RMK A01 T00981070  RH  030%=      5-min Rain = 0
KEN1 211412Z 22010KT 10/M07 A2979 RMK A01 T00971069  RH  030%=      5-min Rain = 0
KEN1 211413Z 22009KT 09/M07 A2979 RMK A01 T00941069  RH  031%=      5-min Rain = 0
KEN1 211414Z 23011KT 09/M07 A2979 RMK A01 T00921069  RH  031%=      5-min Rain = 0
KEN1 211415Z 22014G22KT 09/M07 A2979 RMK A01 T00931068  RH  031%=      5-min Rain = 0
KEN1 211416Z 23014KT 10/M07 A298 RMK A01 T00961068  RH  031%=      5-min Rain = 0
KEN1 211417Z 22014KT 10/M07 A298 RMK A01 T00981067  RH  031%=      5-min Rain = 0
KEN1 211418Z 22013KT 10/M07 A298 RMK A01 T00981067  RH  031%=      5-min Rain = 0
KEN1 211419Z 22013KT 10/M07 A298 RMK A01 T00971067  RH  031%=      5-min Rain = 0
KEN1 211420Z 22013KT 10/M07 A2979 RMK A01 T00971067  RH  031%=      5-min Rain = 0
KEN1 211421Z 22013KT 10/M07 A2979 RMK A01 T00961067  RH  031%=      5-min Rain = 0
KEN1 211422Z 23013KT 10/M07 A2979 RMK A01 T00961068  RH  031%=      5-min Rain = 0
KEN1 211423Z 23012KT 10/M07 A2979 RMK A01 T00971068  RH  031%=      5-min Rain = 0
KEN1 211424Z 22012KT 10/M07 A2979 RMK A01 T00971067  RH  031%=      5-min Rain = 0
KEN1 211425Z 23013KT 10/M07 A2979 RMK A01 T00951068  RH  031%=      5-min Rain = 0
KEN1 211426Z 23014KT 10/M07 A2979 RMK A01 T00951068  RH  031%=      5-min Rain = 0
KEN1 211427Z 23015KT 10/M07 A2979 RMK A01 T00961067  RH  031%=      5-min Rain = 0
KEN1 211428Z 22014KT 10/M07 A2979 RMK A01 T00971068  RH  031%=      5-min Rain = 0
KEN1 211429Z 22016KT 10/M07 A2979 RMK A01 T00971068  RH  031%=      5-min Rain = 0
KEN1 211430Z 23013KT 10/M07 A2979 RMK A01 T00981067  RH  031%=      5-min Rain = 0
KEN1 211431Z 22013KT 10/M07 A2979 RMK A01 T00971067  RH  031%=      5-min Rain = 0
KEN1 211432Z 22013KT 10/M07 A2979 RMK A01 T00961066  RH  031%=      5-min Rain = 0
KEN1 211433Z 22012KT 10/M07 A2979 RMK A01 T00951066  RH  032%=      5-min Rain = 0
KEN1 211434Z 22012KT 09/M07 A2979 RMK A01 T00931066  RH  032%=      5-min Rain = 0
KEN1 211435Z 22012KT 09/M07 A2979 RMK A01 T00941066  RH  032%=      5-min Rain = 0
KEN1 211436Z 23011KT 09/M07 A2979 RMK A01 T00941066  RH  032%=      5-min Rain = 0
KEN1 211437Z 23011KT 09/M07 A2979 RMK A01 T00941066  RH  032%=      5-min Rain = 0
KEN1 211438Z 22012KT 09/M07 A2979 RMK A01 T00941066  RH  032%=      5-min Rain = 0
KEN1 211439Z 22012KT 09/M07 A2979 RMK A01 T00941066  RH  032%=      5-min Rain = 0
KEN1 211440Z 22013KT 10/M07 A2979 RMK A01 T00951066  RH  032%=      5-min Rain = 0
KEN1 211441Z 22011KT 10/M07 A2979 RMK A01 T00951066  RH  031%=      5-min Rain = 0
KEN1 211442Z 22011KT 10/M07 A2979 RMK A01 T00951066  RH  032%=      5-min Rain = 0
KEN1 211443Z 22011KT 09/M07 A2979 RMK A01 T00931065  RH  032%=      5-min Rain = 0
KEN1 211444Z 22011KT 09/M06 A2979 RMK A01 T00921064  RH  032%=      5-min Rain = 0
KEN1 211445Z 22011KT 09/M06 A2979 RMK A01 T00911064  RH  033%=      5-min Rain = 0
KEN1 211446Z 22011KT 09/M06 A2979 RMK A01 T00911064  RH  033%=      5-min Rain = 0
KEN1 211447Z 22011KT 09/M06 A2979 RMK A01 T00911064  RH  033%=      5-min Rain = 0
KEN1 211448Z 22010KT 09/M06 A2979 RMK A01 T00921064  RH  033%=      5-min Rain = 0
KEN1 211449Z 22011KT 09/M06 A2979 RMK A01 T00921064  RH  033%=      5-min Rain = 0
KEN1 211450Z 23010KT 09/M06 A2979 RMK A01 T00921063  RH  033%=      5-min Rain = 0
KEN1 211451Z 23009KT 09/M06 A2979 RMK A01 T00931062  RH  033%=      5-min Rain = 0
KEN1 211452Z 23009KT 09/M06 A2979 RMK A01 T00931061  RH  033%=      5-min Rain = 0
KEN1 211453Z 23008KT 09/M06 A2979 RMK A01 T00931060  RH  033%=      5-min Rain = 0
KEN1 211454Z 23009G14KT 09/M06 A2979 RMK A01 T00931060  RH  033%=      5-min Rain = 0
KEN1 211455Z 23011KT 10/M06 A2979 RMK A01 T00951060  RH  033%=      5-min Rain = 0
KEN1 211456Z 22013KT 10/M06 A2979 RMK A01 T00971060  RH  032%=      5-min Rain = 0
KEN1 211457Z 22013KT 10/M06 A2978 RMK A01 T01001061  RH  032%=      5-min Rain = 0
KEN1 211458Z 22013KT 10/M06 A2978 RMK A01 T01001062  RH  031%=      5-min Rain = 0
KEN1 211459Z 22014KT 10/M06 A2978 RMK A01 T01011061  RH  031%=      5-min Rain = 0
KEN1 211500Z 22014KT 10/M06 A2978 RMK A01 T01011062  RH  031%=      5-min Rain = 0
KEN1 211501Z 22013KT 10/M06 A2978 RMK A01 T01011062  RH  031%=      5-min Rain = 0
KEN1 211502Z 22014KT 10/M06 A2978 RMK A01 T01021062  RH  031%=      5-min Rain = 0
KEN1 211503Z 22013KT 10/M06 A2978 RMK A01 T01031061  RH  031%=      5-min Rain = 0
KEN1 211504Z 23012KT 10/M06 A2979 RMK A01 T01031061  RH  031%=      5-min Rain = 0
KEN1 211505Z 22013KT 10/M06 A2979 RMK A01 T01031061  RH  031%=      5-min Rain = 0
KEN1 211506Z 22012KT 10/M06 A2979 RMK A01 T01041060  RH  031%=      5-min Rain = 0
KEN1 211507Z 23013KT 10/M06 A2979 RMK A01 T01041060  RH  031%=      5-min Rain = 0
KEN1 211508Z 23011KT 11/M06 A2979 RMK A01 T01061059  RH  031%=      5-min Rain = 0
KEN1 211509Z 22013KT 11/M06 A2979 RMK A01 T01061059  RH  031%=      5-min Rain = 0
KEN1 211510Z 22013KT 11/M06 A2979 RMK A01 T01081059  RH  031%=      5-min Rain = 0
KEN1 211511Z 22012KT 11/M06 A2979 RMK A01 T01091059  RH  030%=      5-min Rain = 0
KEN1 211512Z 22013KT 11/M06 A2978 RMK A01 T01101057  RH  031%=      5-min Rain = 0
KEN1 211513Z 22014KT 11/M06 A2978 RMK A01 T01111056  RH  030%=      5-min Rain = 0
KEN1 211514Z 22016KT 11/M06 A2978 RMK A01 T01131057  RH  030%=      5-min Rain = 0
KEN1 211515Z 22014KT 11/M06 A2978 RMK A01 T01141057  RH  030%=      5-min Rain = 0
KEN1 211516Z 22014KT 11/M06 A2978 RMK A01 T01141056  RH  030%=      5-min Rain = 0
KEN1 211517Z 22015KT 12/M06 A2978 RMK A01 T01151056  RH  030%=      5-min Rain = 0
KEN1 211518Z 22015KT 12/M06 A2978 RMK A01 T01151057  RH  030%=      5-min Rain = 0
KEN1 211519Z 22015KT 12/M06 A2978 RMK A01 T01151056  RH  030%=      5-min Rain = 0
KEN1 211520Z 22014KT 12/M06 A2978 RMK A01 T01161056  RH  030%=      5-min Rain = 0
KEN1 211521Z 22013KT 12/M06 A2978 RMK A01 T01161056  RH  030%=      5-min Rain = 0
KEN1 211522Z 22013KT 12/M06 A2978 RMK A01 T01161055  RH  030%=      5-min Rain = 0
KEN1 211523Z 22014KT 12/M06 A2978 RMK A01 T01161055  RH  030%=      5-min Rain = 0
KEN1 211524Z 22014KT 12/M06 A2978 RMK A01 T01161056  RH  029%=      5-min Rain = 0
KEN1 211525Z 22013KT 12/M06 A2978 RMK A01 T01171055  RH  030%=      5-min Rain = 0
KEN1 211526Z 22014KT 12/M06 A2978 RMK A01 T01171055  RH  030%=      5-min Rain = 0
KEN1 211527Z 22012KT 12/M05 A2978 RMK A01 T01171054  RH  030%=      5-min Rain = 0
KEN1 211528Z 22012KT 12/M05 A2978 RMK A01 T01171054  RH  030%=      5-min Rain = 0
KEN1 211529Z 22013KT 12/M06 A2978 RMK A01 T01181055  RH  029%=      5-min Rain = 0
KEN1 211530Z 22014KT 12/M06 A2978 RMK A01 T01191057  RH  029%=      5-min Rain = 0
KEN1 211531Z 23014G19KT 12/M06 A2978 RMK A01 T01191057  RH  029%=      5-min Rain = 0
KEN1 211532Z 23015KT 12/M06 A2978 RMK A01 T01211059  RH  028%=      5-min Rain = 0
KEN1 211533Z 22015KT 12/M06 A2978 RMK A01 T01241059  RH  027%=      5-min Rain = 0
KEN1 211534Z 22015KT 12/M06 A2978 RMK A01 T01241060  RH  027%=      5-min Rain = 0
KEN1 211535Z 22014KT 12/M06 A2978 RMK A01 T01241058  RH  028%=      5-min Rain = 0
KEN1 211536Z 23018KT 12/M06 A2978 RMK A01 T01241060  RH  027%=      5-min Rain = 0
KEN1 211537Z 23016G22KT 13/M06 A2978 RMK A01 T01251062  RH  027%=      5-min Rain = 0
KEN1 211538Z 23015KT 13/M06 A2978 RMK A01 T01251061  RH  027%=      5-min Rain = 0
KEN1 211539Z 22016KT 13/M06 A2978 RMK A01 T01261061  RH  027%=      5-min Rain = 0
KEN1 211540Z 23017KT 13/M06 A2978 RMK A01 T01261062  RH  026%=      5-min Rain = 0
KEN1 211541Z 23014KT 13/M06 A2978 RMK A01 T01261062  RH  026%=      5-min Rain = 0
KEN1 211542Z 23015KT 13/M06 A2978 RMK A01 T01271060  RH  027%=      5-min Rain = 0
KEN1 211543Z 23014KT 13/M06 A2978 RMK A01 T01261061  RH  027%=      5-min Rain = 0
KEN1 211544Z 23014KT 13/M06 A2978 RMK A01 T01251061  RH  027%=      5-min Rain = 0
KEN1 211545Z 23014KT 13/M06 A2978 RMK A01 T01251060  RH  027%=      5-min Rain = 0
KEN1 211546Z 23015KT 13/M06 A2978 RMK A01 T01251061  RH  027%=      5-min Rain = 0
KEN1 211547Z 23013KT 12/M06 A2978 RMK A01 T01241061  RH  027%=      5-min Rain = 0
KEN1 211548Z 23015KT 12/M06 A2978 RMK A01 T01241060  RH  027%=      5-min Rain = 0
KEN1 211549Z 23014KT 12/M06 A2978 RMK A01 T01241061  RH  027%=      5-min Rain = 0
KEN1 211550Z 23013KT 13/M06 A2978 RMK A01 T01261061  RH  027%=      5-min Rain = 0
KEN1 211551Z 23013KT 13/M06 A2978 RMK A01 T01281059  RH  027%=      5-min Rain = 0
KEN1 211552Z 23013KT 13/M06 A2978 RMK A01 T01301059  RH  026%=      5-min Rain = 0
KEN1 211553Z 23015KT 13/M06 A2978 RMK A01 T01301061  RH  026%=      5-min Rain = 0
KEN1 211554Z 23014KT 13/M06 A2978 RMK A01 T01301064  RH  025%=      5-min Rain = 0
KEN1 211555Z 22015KT 13/M06 A2978 RMK A01 T01291063  RH  026%=      5-min Rain = 0
KEN1 211556Z 23014KT 13/M06 A2978 RMK A01 T01281063  RH  026%=      5-min Rain = 0
KEN1 211557Z 23013KT 13/M06 A2978 RMK A01 T01271061  RH  026%=      5-min Rain = 0
KEN1 211558Z 22013KT 13/M06 A2978 RMK A01 T01251060  RH  027%=      5-min Rain = 0
KEN1 211559Z 23014KT 12/M06 A2978 RMK A01 T01241061  RH  027%=      5-min Rain = 0
KEN1 211600Z 23014KT 12/M06 A2978 RMK A01 T01241061  RH  027%=      5-min Rain = 0
KEN1 211601Z 22015KT 13/M06 A2978 RMK A01 T01251060  RH  027%=      5-min Rain = 0
KEN1 211602Z 22015KT 13/M06 A2978 RMK A01 T01291061  RH  026%=      5-min Rain = 0
KEN1 211603Z 22015KT 13/M06 A2978 RMK A01 T01311063  RH  025%=      5-min Rain = 0
KEN1 211604Z 22014KT 13/M06 A2978 RMK A01 T01321062  RH  025%=      5-min Rain = 0
KEN1 211605Z 22015KT 13/M06 A2978 RMK A01 T01311062  RH  025%=      5-min Rain = 0
KEN1 211606Z 22016KT 13/M06 A2978 RMK A01 T01301063  RH  025%=      5-min Rain = 0
KEN1 211607Z 23015KT 13/M06 A2978 RMK A01 T01301064  RH  025%=      5-min Rain = 0
KEN1 211608Z 23011KT 13/M06 A2978 RMK A01 T01301063  RH  026%=      5-min Rain = 0
KEN1 211609Z 22014KT 13/M06 A2978 RMK A01 T01291061  RH  026%=      5-min Rain = 0
KEN1 211610Z 23014KT 13/M06 A2978 RMK A01 T01291063  RH  026%=      5-min Rain = 0
KEN1 211611Z 23012KT 13/M06 A2978 RMK A01 T01291063  RH  026%=      5-min Rain = 0
KEN1 211612Z 23011KT 13/M06 A2978 RMK A01 T01281062  RH  026%=      5-min Rain = 0
KEN1 211613Z 25011KT 13/M06 A2978 RMK A01 T01271059  RH  027%=      5-min Rain = 0
KEN1 211614Z 24010KT 13/M06 A2978 RMK A01 T01261057  RH  027%=      5-min Rain = 0
KEN1 211615Z 25009KT 13/M05 A2978 RMK A01 T01271054  RH  028%=      5-min Rain = 0
KEN1 211616Z 24008KT 13/M05 A2978 RMK A01 T01311051  RH  028%=      5-min Rain = 0
KEN1 211617Z 23012KT 14/M05 A2978 RMK A01 T01351053  RH  027%=      5-min Rain = 0
KEN1 211618Z 24013KT 14/M06 A2978 RMK A01 T01361058  RH  025%=      5-min Rain = 0
KEN1 211619Z 24013KT 14/M06 A2978 RMK A01 T01351060  RH  025%=      5-min Rain = 0
KEN1 211620Z 24012KT 14/M06 A2978 RMK A01 T01351062  RH  025%=      5-min Rain = 0
KEN1 211621Z 24014KT 14/M06 A2978 RMK A01 T01351064  RH  025%=      5-min Rain = 0
KEN1 211622Z 24013KT 14/M07 A2978 RMK A01 T01351066  RH  024%=      5-min Rain = 0
KEN1 211623Z 23014KT 13/M07 A2978 RMK A01 T01341067  RH  024%=      5-min Rain = 0
KEN1 211624Z 23012KT 13/M07 A2978 RMK A01 T01331065  RH  025%=      5-min Rain = 0
KEN1 211625Z 23011KT 13/M06 A2978 RMK A01 T01331063  RH  025%=      5-min Rain = 0
KEN1 211626Z 23013KT 13/M07 A2978 RMK A01 T01321065  RH  025%=      5-min Rain = 0
KEN1 211627Z 23013KT 13/M07 A2978 RMK A01 T01331066  RH  025%=      5-min Rain = 0
KEN1 211628Z 23012KT 13/M07 A2978 RMK A01 T01341065  RH  025%=      5-min Rain = 0
KEN1 211629Z 23012KT 13/M06 A2978 RMK A01 T01341064  RH  025%=      5-min Rain = 0
KEN1 211630Z 23012KT 13/M06 A2978 RMK A01 T01341064  RH  025%=      5-min Rain = 0
KEN1 211631Z 23014KT 14/M06 A2978 RMK A01 T01351063  RH  025%=      5-min Rain = 0
KEN1 211632Z 23014KT 14/M07 A2978 RMK A01 T01361065  RH  024%=      5-min Rain = 0
KEN1 211633Z 22012KT 14/M07 A2978 RMK A01 T01371065  RH  024%=      5-min Rain = 0
KEN1 211634Z 22013KT 14/M06 A2978 RMK A01 T01371060  RH  025%=      5-min Rain = 0
KEN1 211635Z 22012KT 14/M06 A2978 RMK A01 T01361059  RH  025%=      5-min Rain = 0
KEN1 211636Z 23014KT 14/M06 A2978 RMK A01 T01371060  RH  025%=      5-min Rain = 0
KEN1 211637Z 22014KT 14/M06 A2978 RMK A01 T01371062  RH  025%=      5-min Rain = 0
KEN1 211638Z 22013KT 14/M06 A2978 RMK A01 T01371059  RH  025%=      5-min Rain = 0
KEN1 211639Z 22013KT 14/M06 A2978 RMK A01 T01361057  RH  026%=      5-min Rain = 0
KEN1 211640Z 21013KT 14/M06 A2978 RMK A01 T01361056  RH  026%=      5-min Rain = 0
KEN1 211641Z 21012KT 14/M05 A2978 RMK A01 T01361054  RH  026%=      5-min Rain = 0
KEN1 211642Z 21013KT 14/M06 A2978 RMK A01 T01361056  RH  026%=      5-min Rain = 0
KEN1 211643Z 21015KT 14/M06 A2978 RMK A01 T01371058  RH  026%=      5-min Rain = 0
KEN1 211644Z 21014KT 14/M06 A2978 RMK A01 T01371056  RH  026%=      5-min Rain = 0
KEN1 211645Z 21015KT 14/M06 A2978 RMK A01 T01361056  RH  026%=      5-min Rain = 0
KEN1 211646Z 21014KT 14/M06 A2978 RMK A01 T01361058  RH  025%=      5-min Rain = 0
KEN1 211647Z 21016KT 14/M06 A2978 RMK A01 T01381056  RH  026%=      5-min Rain = 0
KEN1 211648Z 21017KT 14/M06 A2978 RMK A01 T01391055  RH  026%=      5-min Rain = 0
KEN1 211649Z 21016KT 14/M05 A2978 RMK A01 T01411054  RH  025%=      5-min Rain = 0
KEN1 211650Z 22014KT 14/M06 A2978 RMK A01 T01421059  RH  024%=      5-min Rain = 0
KEN1 211651Z 21014KT 14/M06 A2978 RMK A01 T01421057  RH  025%=      5-min Rain = 0
KEN1 211652Z 21015KT 14/M06 A2978 RMK A01 T01411056  RH  025%=      5-min Rain = 0
KEN1 211653Z 21015KT 14/M06 A2978 RMK A01 T01391056  RH  025%=      5-min Rain = 0
KEN1 211654Z 22015KT 14/M06 A2978 RMK A01 T01391057  RH  025%=      5-min Rain = 0
KEN1 211655Z 23013KT 14/M06 A2978 RMK A01 T01391061  RH  024%=      5-min Rain = 0
KEN1 211656Z 22014KT 14/M06 A2977 RMK A01 T01411057  RH  025%=      5-min Rain = 0
KEN1 211657Z 22013KT 14/M06 A2977 RMK A01 T01421055  RH  025%=      5-min Rain = 0
KEN1 211658Z 22014KT 14/M05 A2977 RMK A01 T01421054  RH  025%=      5-min Rain = 0
KEN1 211659Z 21013KT 14/M06 A2977 RMK A01 T01421055  RH  025%=      5-min Rain = 0
KEN1 211700Z 21013KT 14/M06 A2977 RMK A01 T01421055  RH  025%=      5-min Rain = 0
KEN1 211701Z 21014KT 14/M05 A2977 RMK A01 T01431053  RH  025%=      5-min Rain = 0
KEN1 211702Z 21014KT 14/M06 A2977 RMK A01 T01431056  RH  025%=      5-min Rain = 0
KEN1 211703Z 21014KT 14/M06 A2977 RMK A01 T01431055  RH  025%=      5-min Rain = 0
KEN1 211704Z 21014KT 14/M06 A2977 RMK A01 T01431057  RH  025%=      5-min Rain = 0
KEN1 211705Z 22012G17KT 14/M06 A2977 RMK A01 T01441056  RH  025%=      5-min Rain = 0
KEN1 211706Z 21012KT 15/M06 A2977 RMK A01 T01461055  RH  024%=      5-min Rain = 0
KEN1 211707Z 22012KT 15/M06 A2977 RMK A01 T01471055  RH  024%=      5-min Rain = 0
KEN1 211708Z 22011KT 15/M05 A2978 RMK A01 T01481053  RH  025%=      5-min Rain = 0
KEN1 211709Z 22010KT 15/M05 A2977 RMK A01 T01491050  RH  025%=      5-min Rain = 0
KEN1 211710Z 23011KT 15/M05 A2978 RMK A01 T01511051  RH  024%=      5-min Rain = 0
KEN1 211711Z 22012KT 15/M05 A2977 RMK A01 T01521051  RH  024%=      5-min Rain = 0
KEN1 211712Z 20014KT 15/M05 A2977 RMK A01 T01531052  RH  024%=      5-min Rain = 0
KEN1 211713Z 21012KT 15/M05 A2977 RMK A01 T01531051  RH  024%=      5-min Rain = 0
KEN1 211714Z 21012KT 15/M05 A2977 RMK A01 T01531054  RH  024%=      5-min Rain = 0
KEN1 211715Z 21010KT 15/M05 A2977 RMK A01 T01531052  RH  024%=      5-min Rain = 0
KEN1 211716Z 21010KT 15/M05 A2977 RMK A01 T01541053  RH  024%=      5-min Rain = 0
KEN1 211717Z 22009KT 15/M06 A2977 RMK A01 T01541055  RH  023%=      5-min Rain = 0
KEN1 211718Z 22010KT 15/M05 A2977 RMK A01 T01521054  RH  024%=      5-min Rain = 0
KEN1 211719Z 22009KT 15/M06 A2977 RMK A01 T01531055  RH  023%=      5-min Rain = 0
KEN1 211720Z 23011KT 15/M06 A2977 RMK A01 T01541055  RH  023%=      5-min Rain = 0
KEN1 211721Z 22011G16KT 16/M05 A2977 RMK A01 T01561054  RH  023%=      5-min Rain = 0
KEN1 211722Z 23014KT 16/M06 A2977 RMK A01 T01571055  RH  023%=      5-min Rain = 0
KEN1 211723Z 23012KT 16/M06 A2977 RMK A01 T01581056  RH  022%=      5-min Rain = 0
KEN1 211724Z 22013KT 16/M05 A2977 RMK A01 T01581054  RH  023%=      5-min Rain = 0
KEN1 211725Z 22012KT 16/M06 A2976 RMK A01 T01591057  RH  022%=      5-min Rain = 0
KEN1 211726Z 24012KT 16/M05 A2976 RMK A01 T01591054  RH  023%=      5-min Rain = 0
KEN1 211727Z 23012KT 16/M06 A2976 RMK A01 T01631055  RH  022%=      5-min Rain = 0
KEN1 211728Z 22016KT 16/M06 A2976 RMK A01 T01641056  RH  022%=      5-min Rain = 0
KEN1 211729Z 22015KT 16/M06 A2976 RMK A01 T01641055  RH  022%=      5-min Rain = 0
KEN1 211730Z 22013KT 16/M05 A2976 RMK A01 T01641054  RH  022%=      5-min Rain = 0
KEN1 211731Z 20012KT 16/M05 A2976 RMK A01 T01641050  RH  023%=      5-min Rain = 0
KEN1 211732Z 20014KT 16/M05 A2976 RMK A01 T01641048  RH  023%=      5-min Rain = 0
KEN1 211733Z 20016KT 16/M05 A2976 RMK A01 T01631048  RH  023%=      5-min Rain = 0
KEN1 211734Z 20013KT 16/M05 A2976 RMK A01 T01621050  RH  023%=      5-min Rain = 0
KEN1 211735Z 20012KT 16/M05 A2975 RMK A01 T01611051  RH  023%=      5-min Rain = 0
KEN1 211736Z 21013G18KT 16/M05 A2975 RMK A01 T01611048  RH  023%=      5-min Rain = 0
KEN1 211737Z 22014KT 16/M05 A2975 RMK A01 T01611051  RH  023%=      5-min Rain = 0
KEN1 211738Z 21015KT 16/M05 A2975 RMK A01 T01621050  RH  023%=      5-min Rain = 0
KEN1 211739Z 22016KT 16/M05 A2975 RMK A01 T01621053  RH  022%=      5-min Rain = 0
KEN1 211740Z 22017KT 16/M06 A2975 RMK A01 T01631055  RH  022%=      5-min Rain = 0
KEN1 211741Z 22014KT 16/M05 A2975 RMK A01 T01641053  RH  022%=      5-min Rain = 0
KEN1 211742Z 22016KT 17/M05 A2975 RMK A01 T01651054  RH  022%=      5-min Rain = 0
KEN1 211743Z 22015KT 17/M05 A2975 RMK A01 T01651054  RH  022%=      5-min Rain = 0
KEN1 211744Z 21015KT 16/M06 A2975 RMK A01 T01621056  RH  022%=      5-min Rain = 0
KEN1 211745Z 22015KT 16/M06 A2975 RMK A01 T01591055  RH  022%=      5-min Rain = 0
KEN1 211746Z 22014KT 16/M05 A2975 RMK A01 T01581054  RH  023%=      5-min Rain = 0
KEN1 211747Z 22014KT 16/M05 A2975 RMK A01 T01571053  RH  023%=      5-min Rain = 0
KEN1 211748Z 22013KT 16/M05 A2975 RMK A01 T01581053  RH  023%=      5-min Rain = 0
KEN1 211749Z 23011KT 16/M05 A2975 RMK A01 T01601051  RH  023%=      5-min Rain = 0
KEN1 211750Z 24011KT 16/M05 A2975 RMK A01 T01611052  RH  023%=      5-min Rain = 0
KEN1 211751Z 23013KT 16/M05 A2975 RMK A01 T01631053  RH  022%=      5-min Rain = 0
KEN1 211752Z 22015KT 16/M05 A2975 RMK A01 T01641052  RH  022%=      5-min Rain = 0
KEN1 211753Z 23017KT 17/M05 A2975 RMK A01 T01661052  RH  022%=      5-min Rain = 0
KEN1 211754Z 23015KT 17/M06 A2974 RMK A01 T01671055  RH  021%=      5-min Rain = 0
KEN1 211755Z 23015KT 17/M05 A2974 RMK A01 T01691051  RH  022%=      5-min Rain = 0
KEN1 211756Z 23015KT 17/M05 A2974 RMK A01 T01701051  RH  022%=      5-min Rain = 0
KEN1 211757Z 22018KT 17/M05 A2974 RMK A01 T01711051  RH  022%=      5-min Rain = 0
KEN1 211758Z 22017KT 17/M05 A2974 RMK A01 T01711051  RH  021%=      5-min Rain = 0
KEN1 211759Z 22021KT 17/M05 A2974 RMK A01 T01711052  RH  021%=      5-min Rain = 0
KEN1 211800Z 22021KT 17/M05 A2974 RMK A01 T01701054  RH  021%=      5-min Rain = 0
KEN1 211801Z 22018KT 17/M05 A2974 RMK A01 T01691054  RH  021%=      5-min Rain = 0
KEN1 211802Z 23016KT 17/M05 A2975 RMK A01 T01721049  RH  022%=      5-min Rain = 0
KEN1 211803Z 22017KT 17/M05 A2975 RMK A01 T01741049  RH  021%=      5-min Rain = 0
KEN1 211804Z 22017KT 18/M05 A2975 RMK A01 T01751051  RH  021%=      5-min Rain = 0
KEN1 211805Z 22015KT 17/M05 A2975 RMK A01 T01741052  RH  021%=      5-min Rain = 0
KEN1 211806Z 23019KT 17/M05 A2975 RMK A01 T01741052  RH  021%=      5-min Rain = 0
KEN1 211807Z 23019KT 17/M06 A2975 RMK A01 T01731055  RH  020%=      5-min Rain = 0
KEN1 211808Z 23019KT 17/M05 A2975 RMK A01 T01731054  RH  021%=      5-min Rain = 0
KEN1 211809Z 23019KT 17/M06 A2975 RMK A01 T01721056  RH  021%=      5-min Rain = 0
KEN1 211810Z 23019KT 17/M05 A2975 RMK A01 T01711054  RH  021%=      5-min Rain = 0
KEN1 211811Z 24017KT 17/M05 A2975 RMK A01 T01721054  RH  021%=      5-min Rain = 0
KEN1 211812Z 24017G22KT 17/M06 A2975 RMK A01 T01721055  RH  021%=      5-min Rain = 0
KEN1 211813Z 24018G24KT 17/M05 A2975 RMK A01 T01721054  RH  021%=      5-min Rain = 0
KEN1 211814Z 23018KT 17/M05 A2975 RMK A01 T01741053  RH  021%=      5-min Rain = 0
KEN1 211815Z 24017G22KT 18/M05 A2975 RMK A01 T01761053  RH  021%=      5-min Rain = 0
KEN1 211816Z 24023G29KT 18/M05 A2975 RMK A01 T01781053  RH  020%=      5-min Rain = 0
KEN1 211817Z 24021G26KT 18/M06 A2975 RMK A01 T01781057  RH  020%=      5-min Rain = 0
KEN1 211818Z 24022KT 18/M06 A2975 RMK A01 T01781057  RH  020%=      5-min Rain = 0
KEN1 211819Z 24021G26KT 18/M06 A2975 RMK A01 T01761058  RH  020%=      5-min Rain = 0
KEN1 211820Z 24020KT 18/M06 A2975 RMK A01 T01751056  RH  020%=      5-min Rain = 0
KEN1 211821Z 23021KT 18/M06 A2974 RMK A01 T01751055  RH  020%=      5-min Rain = 0
KEN1 211822Z 23023G28KT 18/M06 A2974 RMK A01 T01771055  RH  020%=      5-min Rain = 0
KEN1 211823Z 24021G26KT 18/M06 A2974 RMK A01 T01781055  RH  020%=      5-min Rain = 0
KEN1 211824Z 24017G22KT 18/M05 A2974 RMK A01 T01801053  RH  020%=      5-min Rain = 0
KEN1 211825Z 24023KT 18/M06 A2974 RMK A01 T01811055  RH  020%=      5-min Rain = 0
KEN1 211826Z 23017G22KT 18/M06 A2974 RMK A01 T01791056  RH  020%=      5-min Rain = 0
KEN1 211827Z 24020KT 18/M05 A2974 RMK A01 T01791052  RH  020%=      5-min Rain = 0
KEN1 211828Z 23018KT 18/M05 A2973 RMK A01 T01801053  RH  020%=      5-min Rain = 0
KEN1 211829Z 23020KT 18/M05 A2973 RMK A01 T01801052  RH  020%=      5-min Rain = 0
KEN1 211830Z 24016KT 18/M05 A2973 RMK A01 T01801051  RH  020%=      5-min Rain = 0
KEN1 211831Z 24020G26KT 18/M05 A2974 RMK A01 T01821051  RH  020%=      5-min Rain = 0
KEN1 211832Z 23023KT 18/M06 A2973 RMK A01 T01821056  RH  019%=      5-min Rain = 0
KEN1 211833Z 23024KT 18/M06 A2973 RMK A01 T01811057  RH  019%=      5-min Rain = 0
KEN1 211834Z 23022KT 18/M06 A2973 RMK A01 T01811056  RH  019%=      5-min Rain = 0
KEN1 211835Z 24024KT 18/M05 A2973 RMK A01 T01831054  RH  019%=      5-min Rain = 0
KEN1 211836Z 23021G29KT 18/M06 A2973 RMK A01 T01841055  RH  019%=      5-min Rain = 0
KEN1 211837Z 23024G30KT 19/M06 A2973 RMK A01 T01851056  RH  019%=      5-min Rain = 0
KEN1 211838Z 23023G29KT 19/M05 A2973 RMK A01 T01851054  RH  019%=      5-min Rain = 0
KEN1 211839Z 23025G33KT 19/M06 A2972 RMK A01 T01861057  RH  019%=      5-min Rain = 0
KEN1 211840Z 24025G30KT 18/M06 A2973 RMK A01 T01841056  RH  019%=      5-min Rain = 0
KEN1 211841Z 24027KT 18/M06 A2973 RMK A01 T01841058  RH  019%=      5-min Rain = 0
KEN1 211842Z 23025G31KT 18/M06 A2973 RMK A01 T01841059  RH  019%=      5-min Rain = 0
KEN1 211843Z 24025KT 18/M06 A2972 RMK A01 T01831058  RH  019%=      5-min Rain = 0
KEN1 211844Z 24022G28KT 18/M06 A2972 RMK A01 T01841057  RH  019%=      5-min Rain = 0
KEN1 211845Z 23022KT 19/M06 A2972 RMK A01 T01851056  RH  019%=      5-min Rain = 0
KEN1 211846Z 23023KT 19/M06 A2972 RMK A01 T01861056  RH  019%=      5-min Rain = 0
KEN1 211847Z 24025KT 19/M06 A2972 RMK A01 T01861056  RH  019%=      5-min Rain = 0
KEN1 211848Z 24024KT 19/M06 A2972 RMK A01 T01851058  RH  019%=      5-min Rain = 0
KEN1 211849Z 23020KT 18/M06 A2972 RMK A01 T01841057  RH  019%=      5-min Rain = 0
KEN1 211850Z 23021KT 19/M06 A2972 RMK A01 T01861055  RH  019%=      5-min Rain = 0
KEN1 211851Z 23022G27KT 19/M06 A2972 RMK A01 T01861055  RH  019%=      5-min Rain = 0
KEN1 211852Z 23023KT 19/M06 A2972 RMK A01 T01861057  RH  019%=      5-min Rain = 0
KEN1 211853Z 22019G24KT 19/M06 A2972 RMK A01 T01851056  RH  019%=      5-min Rain = 0
KEN1 211854Z 22022KT 19/M05 A2971 RMK A01 T01881054  RH  019%=      5-min Rain = 0
KEN1 211855Z 22024KT 19/M06 A2971 RMK A01 T01891055  RH  019%=      5-min Rain = 0
KEN1 211856Z 23024KT 19/M06 A2971 RMK A01 T01891056  RH  019%=      5-min Rain = 0
KEN1 211857Z 22022KT 19/M06 A2971 RMK A01 T01881056  RH  019%=      5-min Rain = 0
KEN1 211858Z 23022G30KT 19/M06 A2971 RMK A01 T01881056  RH  019%=      5-min Rain = 0
KEN1 211859Z 23021G26KT 19/M06 A2971 RMK A01 T01891056  RH  018%=      5-min Rain = 0
KEN1 211900Z 22024G29KT 19/M06 A2971 RMK A01 T01891057  RH  018%=      5-min Rain = 0
KEN1 211901Z 23020KT 19/M06 A2971 RMK A01 T01891058  RH  018%=      5-min Rain = 0
KEN1 211902Z 23021G26KT 19/M06 A2971 RMK A01 T01891057  RH  018%=      5-min Rain = 0
KEN1 211903Z 24025KT 19/M06 A2971 RMK A01 T01891058  RH  018%=      5-min Rain = 0
KEN1 211904Z 23023G28KT 19/M06 A2971 RMK A01 T01891058  RH  018%=      5-min Rain = 0
KEN1 211905Z 23023G28KT 19/M06 A2971 RMK A01 T01891059  RH  018%=      5-min Rain = 0
KEN1 211906Z 23020G26KT 19/M06 A2971 RMK A01 T01911056  RH  018%=      5-min Rain = 0
KEN1 211907Z 23022KT 19/M06 A2971 RMK A01 T01931056  RH  018%=      5-min Rain = 0
KEN1 211908Z 23024KT 19/M06 A2971 RMK A01 T01931058  RH  018%=      5-min Rain = 0
KEN1 211909Z 23025KT 19/M06 A297 RMK A01 T01931059  RH  018%=      5-min Rain = 0
KEN1 211910Z 23020G25KT 19/M06 A297 RMK A01 T01921058  RH  018%=      5-min Rain = 0
KEN1 211911Z 23025KT 19/M06 A297 RMK A01 T01931056  RH  018%=      5-min Rain = 0
KEN1 211912Z 24022KT 19/M06 A297 RMK A01 T01931059  RH  018%=      5-min Rain = 0
KEN1 211913Z 24023KT 19/M06 A297 RMK A01 T01911058  RH  018%=      5-min Rain = 0
KEN1 211914Z 25020KT 19/M06 A297 RMK A01 T01911056  RH  018%=      5-min Rain = 0
KEN1 211915Z 24019KT 19/M05 A297 RMK A01 T01921054  RH  018%=      5-min Rain = 0
KEN1 211916Z 23024G32KT 20/M05 A297 RMK A01 T01951053  RH  018%=      5-min Rain = 0
KEN1 211917Z 24026KT 19/M06 A297 RMK A01 T01941058  RH  018%=      5-min Rain = 0
KEN1 211918Z 24024G30KT 19/M06 A297 RMK A01 T01901060  RH  018%=      5-min Rain = 0
KEN1 211919Z 24023G28KT 19/M06 A297 RMK A01 T01881058  RH  018%=      5-min Rain = 0
KEN1 211920Z 23019KT 19/M06 A297 RMK A01 T01901055  RH  018%=      5-min Rain = 0
KEN1 211921Z 24022KT 19/M06 A297 RMK A01 T01921055  RH  018%=      5-min Rain = 0
KEN1 211922Z 24022KT 19/M06 A297 RMK A01 T01931057  RH  018%=      5-min Rain = 0
KEN1 211923Z 24024KT 19/M06 A297 RMK A01 T01931057  RH  018%=      5-min Rain = 0
KEN1 211924Z 24021KT 19/M06 A2969 RMK A01 T01931057  RH  018%=      5-min Rain = 0
KEN1 211925Z 24023KT 19/M06 A2969 RMK A01 T01931057  RH  018%=      5-min Rain = 0
KEN1 211926Z 24023KT 19/M06 A2969 RMK A01 T01921059  RH  018%=      5-min Rain = 0
KEN1 211927Z 24021KT 19/M06 A2969 RMK A01 T01901058  RH  018%=      5-min Rain = 0
KEN1 211928Z 24018KT 19/M06 A2969 RMK A01 T01871058  RH  018%=      5-min Rain = 0
KEN1 211929Z 23020KT 19/M06 A2969 RMK A01 T01871056  RH  019%=      5-min Rain = 0
KEN1 211930Z 22020KT 19/M06 A2969 RMK A01 T01881055  RH  019%=      5-min Rain = 0
KEN1 211931Z 23018KT 19/M06 A2969 RMK A01 T01881056  RH  019%=      5-min Rain = 0
KEN1 211932Z 23021KT 19/M06 A2969 RMK A01 T01881055  RH  019%=      5-min Rain = 0
KEN1 211933Z 23017KT 19/M06 A2969 RMK A01 T01871055  RH  019%=      5-min Rain = 0
KEN1 211934Z 23017KT 19/M05 A2969 RMK A01 T01881053  RH  019%=      5-min Rain = 0
KEN1 211935Z 22019KT 19/M05 A2969 RMK A01 T01911051  RH  019%=      5-min Rain = 0
KEN1 211936Z 24017KT 19/M06 A2969 RMK A01 T01911055  RH  018%=      5-min Rain = 0
KEN1 211937Z 23016KT 19/M05 A2968 RMK A01 T01911053  RH  019%=      5-min Rain = 0
KEN1 211938Z 23018KT 19/M05 A2968 RMK A01 T01911053  RH  019%=      5-min Rain = 0
KEN1 211939Z 23018KT 19/M06 A2968 RMK A01 T01911055  RH  018%=      5-min Rain = 0
KEN1 211940Z 24018KT 19/M06 A2968 RMK A01 T01901055  RH  019%=      5-min Rain = 0
KEN1 211941Z 24018KT 19/M05 A2968 RMK A01 T01901054  RH  019%=      5-min Rain = 0
KEN1 211942Z 23017KT 19/M06 A2968 RMK A01 T01891055  RH  019%=      5-min Rain = 0
KEN1 211943Z 24019KT 19/M05 A2968 RMK A01 T01891054  RH  019%=      5-min Rain = 0
KEN1 211944Z 25018KT 19/M06 A2968 RMK A01 T01881055  RH  019%=      5-min Rain = 0
KEN1 211945Z 24017KT 19/M06 A2968 RMK A01 T01881055  RH  019%=      5-min Rain = 0
KEN1 211946Z 24017KT 19/M05 A2968 RMK A01 T01881054  RH  019%=      5-min Rain = 0
KEN1 211947Z 24015KT 19/M06 A2968 RMK A01 T01881055  RH  019%=      5-min Rain = 0
KEN1 211948Z 24016KT 19/M05 A2968 RMK A01 T01891052  RH  019%=      5-min Rain = 0
KEN1 211949Z 23015KT 19/M05 A2968 RMK A01 T01891054  RH  019%=      5-min Rain = 0
KEN1 211950Z 23015KT 19/M05 A2968 RMK A01 T01891052  RH  019%=      5-min Rain = 0
KEN1 211951Z 23015KT 19/M05 A2968 RMK A01 T01911050  RH  019%=      5-min Rain = 0
KEN1 211952Z 23014KT 19/M05 A2968 RMK A01 T01921049  RH  019%=      5-min Rain = 0
KEN1 211953Z 23016KT 19/M05 A2968 RMK A01 T01921050  RH  019%=      5-min Rain = 0
KEN1 211954Z 23016KT 19/M05 A2967 RMK A01 T01921051  RH  019%=      5-min Rain = 0
KEN1 211955Z 24016KT 19/M05 A2968 RMK A01 T01921050  RH  019%=      5-min Rain = 0
KEN1 211956Z 22017G22KT 19/M05 A2967 RMK A01 T01921051  RH  019%=      5-min Rain = 0
KEN1 211957Z 22017KT 19/M05 A2967 RMK A01 T01921052  RH  019%=      5-min Rain = 0
KEN1 211958Z 23018G23KT 19/M05 A2967 RMK A01 T01921052  RH  019%=      5-min Rain = 0
KEN1 211959Z 23020G25KT 19/M05 A2967 RMK A01 T01921054  RH  018%=      5-min Rain = 0
KEN1 212000Z 23021KT 19/M05 A2967 RMK A01 T01921054  RH  018%=      5-min Rain = 0
KEN1 212001Z 23017G22KT 19/M05 A2967 RMK A01 T01931054  RH  018%=      5-min Rain = 0
KEN1 212002Z 23017KT 20/M05 A2967 RMK A01 T01951052  RH  018%=      5-min Rain = 0
KEN1 212003Z 22018KT 20/M05 A2967 RMK A01 T01971053  RH  018%=      5-min Rain = 0
KEN1 212004Z 22016KT 20/M05 A2967 RMK A01 T01971053  RH  018%=      5-min Rain = 0
KEN1 212005Z 23016KT 20/M05 A2966 RMK A01 T01981052  RH  018%=      5-min Rain = 0
KEN1 212006Z 23017KT 20/M05 A2967 RMK A01 T01981053  RH  018%=      5-min Rain = 0
KEN1 212007Z 23019G25KT 20/M05 A2966 RMK A01 T01971053  RH  018%=      5-min Rain = 0
KEN1 212008Z 22016G21KT 20/M05 A2966 RMK A01 T01961054  RH  018%=      5-min Rain = 0
KEN1 212009Z 23017KT 20/M05 A2966 RMK A01 T01961053  RH  018%=      5-min Rain = 0
KEN1 212010Z 23014KT 20/M05 A2966 RMK A01 T01951052  RH  018%=      5-min Rain = 0
KEN1 212011Z 22016G24KT 20/M05 A2966 RMK A01 T01961050  RH  018%=      5-min Rain = 0
KEN1 212012Z 23022KT 20/M05 A2966 RMK A01 T01971054  RH  018%=      5-min Rain = 0
KEN1 212013Z 23019KT 20/M06 A2966 RMK A01 T01961056  RH  018%=      5-min Rain = 0
KEN1 212014Z 23018G23KT 19/M06 A2966 RMK A01 T01941056  RH  018%=      5-min Rain = 0
KEN1 212015Z 23019G24KT 19/M06 A2966 RMK A01 T01931055  RH  018%=      5-min Rain = 0
KEN1 212016Z 23015KT 19/M05 A2966 RMK A01 T01941053  RH  018%=      5-min Rain = 0
KEN1 212017Z 23020KT 20/M06 A2966 RMK A01 T01951055  RH  018%=      5-min Rain = 0
KEN1 212018Z 23020KT 20/M06 A2966 RMK A01 T01951057  RH  018%=      5-min Rain = 0
KEN1 212019Z 22020G26KT 20/M06 A2965 RMK A01 T01951057  RH  018%=      5-min Rain = 0
KEN1 212020Z 22020KT 20/M06 A2965 RMK A01 T01951058  RH  018%=      5-min Rain = 0
KEN1 212021Z 23023G28KT 19/M06 A2965 RMK A01 T01941058  RH  018%=      5-min Rain = 0
KEN1 212022Z 23021G26KT 19/M06 A2965 RMK A01 T01931059  RH  018%=      5-min Rain = 0
KEN1 212023Z 23021KT 19/M06 A2965 RMK A01 T01921060  RH  018%=      5-min Rain = 0
KEN1 212024Z 23019G24KT 19/M06 A2965 RMK A01 T01921059  RH  018%=      5-min Rain = 0
KEN1 212025Z 23018KT 19/M06 A2965 RMK A01 T01921057  RH  018%=      5-min Rain = 0
KEN1 212026Z 22017KT 19/M06 A2965 RMK A01 T01921057  RH  018%=      5-min Rain = 0
KEN1 212027Z 22021KT 19/M06 A2964 RMK A01 T01921057  RH  018%=      5-min Rain = 0
KEN1 212028Z 22021G26KT 19/M06 A2965 RMK A01 T01921058  RH  018%=      5-min Rain = 0
KEN1 212029Z 22017KT 19/M06 A2964 RMK A01 T01911058  RH  018%=      5-min Rain = 0
KEN1 212030Z 22019G24KT 19/M06 A2964 RMK A01 T01901055  RH  018%=      5-min Rain = 0
KEN1 212031Z 22019G24KT 19/M06 A2964 RMK A01 T01911055  RH  018%=      5-min Rain = 0
KEN1 212032Z 22018G23KT 19/M06 A2964 RMK A01 T01911055  RH  018%=      5-min Rain = 0
KEN1 212033Z 22017KT 19/M05 A2964 RMK A01 T01911054  RH  019%=      5-min Rain = 0
KEN1 212034Z 22018KT 19/M05 A2964 RMK A01 T01911054  RH  018%=      5-min Rain = 0
KEN1 212035Z 22015G21KT 19/M05 A2964 RMK A01 T01911052  RH  019%=      5-min Rain = 0
KEN1 212036Z 22020G27KT 19/M05 A2964 RMK A01 T01911053  RH  019%=      5-min Rain = 0
KEN1 212037Z 22019KT 19/M05 A2964 RMK A01 T01911054  RH  018%=      5-min Rain = 0
KEN1 212038Z 22019KT 19/M06 A2964 RMK A01 T01911055  RH  018%=      5-min Rain = 0
KEN1 212039Z 22019KT 19/M06 A2964 RMK A01 T01901055  RH  019%=      5-min Rain = 0
KEN1 212040Z 23023KT 19/M06 A2964 RMK A01 T01901057  RH  018%=      5-min Rain = 0
KEN1 212041Z 22022KT 19/M06 A2964 RMK A01 T01891059  RH  018%=      5-min Rain = 0
KEN1 212042Z 23019G24KT 19/M06 A2963 RMK A01 T01891059  RH  018%=      5-min Rain = 0
KEN1 212043Z 23024KT 19/M06 A2964 RMK A01 T01891058  RH  018%=      5-min Rain = 0
KEN1 212044Z 22023KT 19/M06 A2963 RMK A01 T01891060  RH  018%=      5-min Rain = 0
KEN1 212045Z 23020G25KT 19/M06 A2964 RMK A01 T01891057  RH  018%=      5-min Rain = 0
KEN1 212046Z 23020G25KT 19/M06 A2963 RMK A01 T01891058  RH  018%=      5-min Rain = 0
KEN1 212047Z 22018G24KT 19/M06 A2963 RMK A01 T01901058  RH  018%=      5-min Rain = 0
KEN1 212048Z 22021G26KT 19/M06 A2963 RMK A01 T01901057  RH  018%=      5-min Rain = 0
KEN1 212049Z 22024KT 19/M06 A2963 RMK A01 T01911058  RH  018%=      5-min Rain = 0
KEN1 212050Z 22025G30KT 19/M06 A2963 RMK A01 T01911059  RH  018%=      5-min Rain = 0
KEN1 212051Z 23025G30KT 19/M06 A2963 RMK A01 T01911059  RH  018%=      5-min Rain = 0
KEN1 212052Z 22021KT 19/M06 A2963 RMK A01 T01901059  RH  018%=      5-min Rain = 0
KEN1 212053Z 22024KT 19/M06 A2962 RMK A01 T01901058  RH  018%=      5-min Rain = 0
KEN1 212054Z 22027G32KT 19/M06 A2962 RMK A01 T01901060  RH  018%=      5-min Rain = 0
KEN1 212055Z 22023G29KT 19/M06 A2962 RMK A01 T01901059  RH  018%=      5-min Rain = 0
KEN1 212056Z 23021G26KT 19/M06 A2962 RMK A01 T01911057  RH  018%=      5-min Rain = 0
KEN1 212057Z 22021KT 19/M06 A2962 RMK A01 T01901057  RH  018%=      5-min Rain = 0
KEN1 212058Z 22023G29KT 19/M06 A2962 RMK A01 T01911056  RH  018%=      5-min Rain = 0
KEN1 212059Z 22021G26KT 19/M06 A2962 RMK A01 T01911057  RH  018%=      5-min Rain = 0
KEN1 212100Z 22023G28KT 19/M06 A2962 RMK A01 T01911057  RH  018%=      5-min Rain = 0
KEN1 212101Z 22022G28KT 19/M06 A2961 RMK A01 T01911057  RH  018%=      5-min Rain = 0
KEN1 212102Z 22026KT 19/M06 A2962 RMK A01 T01911057  RH  018%=      5-min Rain = 0
KEN1 212103Z 22022KT 19/M06 A2961 RMK A01 T01901058  RH  018%=      5-min Rain = 0
KEN1 212104Z 22024G29KT 19/M06 A2961 RMK A01 T01901056  RH  018%=      5-min Rain = 0
KEN1 212105Z 22022KT 19/M06 A2961 RMK A01 T01901057  RH  018%=      5-min Rain = 0
KEN1 212106Z 22021KT 19/M06 A2961 RMK A01 T01891056  RH  018%=      5-min Rain = 0
KEN1 212107Z 22029G34KT 19/M06 A2961 RMK A01 T01891056  RH  018%=      5-min Rain = 0
KEN1 212108Z 21028KT 19/M06 A2961 RMK A01 T01881060  RH  018%=      5-min Rain = 0
KEN1 212109Z 22025KT 19/M06 A2961 RMK A01 T01881059  RH  018%=      5-min Rain = 0
KEN1 212110Z 22026G31KT 19/M06 A2961 RMK A01 T01881059  RH  018%=      5-min Rain = 0
KEN1 212111Z 22024KT 19/M06 A2961 RMK A01 T01881058  RH  018%=      5-min Rain = 0
KEN1 212112Z 21021G26KT 19/M06 A2961 RMK A01 T01881056  RH  019%=      5-min Rain = 0
KEN1 212113Z 21023G30KT 19/M05 A2961 RMK A01 T01871054  RH  019%=      5-min Rain = 0
KEN1 212114Z 21026G31KT 19/M06 A2961 RMK A01 T01871056  RH  019%=      5-min Rain = 0
KEN1 212115Z 21025KT 19/M06 A2961 RMK A01 T01861057  RH  019%=      5-min Rain = 0
KEN1 212116Z 22023G28KT 19/M06 A2961 RMK A01 T01851057  RH  019%=      5-min Rain = 0
KEN1 212117Z 22019KT 19/M06 A2962 RMK A01 T01851056  RH  019%=      5-min Rain = 0
KEN1 212118Z 21020KT 19/M06 A2961 RMK A01 T01851055  RH  019%=      5-min Rain = 0
KEN1 212119Z 21020KT 19/M06 A2961 RMK A01 T01851055  RH  019%=      5-min Rain = 0
KEN1 212120Z 22018KT 19/M05 A2962 RMK A01 T01851054  RH  019%=      5-min Rain = 0
KEN1 212121Z 22016KT 19/M05 A2962 RMK A01 T01851053  RH  019%=      5-min Rain = 0
KEN1 212122Z 21022KT 19/M05 A2962 RMK A01 T01851053  RH  019%=      5-min Rain = 0
KEN1 212123Z 22020KT 19/M05 A2962 RMK A01 T01851054  RH  019%=      5-min Rain = 0
KEN1 212124Z 22019KT 19/M05 A2962 RMK A01 T01861054  RH  019%=      5-min Rain = 0
KEN1 212125Z 22018KT 19/M05 A2962 RMK A01 T01861053  RH  019%=      5-min Rain = 0
KEN1 212126Z 21015KT 19/M05 A2962 RMK A01 T01861051  RH  019%=      5-min Rain = 0
KEN1 212127Z 21015KT 19/M05 A2962 RMK A01 T01871048  RH  020%=      5-min Rain = 0
KEN1 212128Z 22017KT 19/M05 A2961 RMK A01 T01881050  RH  020%=      5-min Rain = 0
KEN1 212129Z 21015KT 19/M05 A2961 RMK A01 T01891048  RH  020%=      5-min Rain = 0
KEN1 212130Z 21021G27KT 19/M05 A2961 RMK A01 T01901049  RH  019%=      5-min Rain = 0
KEN1 212131Z 21019KT 19/M05 A2961 RMK A01 T01911052  RH  019%=      5-min Rain = 0
KEN1 212132Z 21020KT 19/M05 A2961 RMK A01 T01931051  RH  019%=      5-min Rain = 0
KEN1 212133Z 21018KT 19/M05 A2961 RMK A01 T01941052  RH  019%=      5-min Rain = 0
KEN1 212134Z 21020KT 19/M05 A2961 RMK A01 T01941051  RH  019%=      5-min Rain = 0
KEN1 212135Z 21019G24KT 20/M05 A2961 RMK A01 T01951053  RH  018%=      5-min Rain = 0
KEN1 212136Z 21020KT 19/M05 A2961 RMK A01 T01941052  RH  018%=      5-min Rain = 0
KEN1 212137Z 21017KT 20/M05 A2961 RMK A01 T01951054  RH  018%=      5-min Rain = 0
KEN1 212138Z 21018KT 20/M05 A2961 RMK A01 T01961051  RH  018%=      5-min Rain = 0
KEN1 212139Z 21019KT 20/M05 A2961 RMK A01 T01971052  RH  018%=      5-min Rain = 0
KEN1 212140Z 22020KT 20/M05 A2961 RMK A01 T01981053  RH  018%=      5-min Rain = 0
KEN1 212141Z 21021KT 20/M05 A2961 RMK A01 T01981054  RH  018%=      5-min Rain = 0
KEN1 212142Z 22021G26KT 20/M06 A2961 RMK A01 T01981055  RH  018%=      5-min Rain = 0
KEN1 212143Z 22020G25KT 20/M06 A2961 RMK A01 T01981056  RH  018%=      5-min Rain = 0
KEN1 212144Z 21018KT 20/M06 A2961 RMK A01 T01981055  RH  017%=      5-min Rain = 0
KEN1 212145Z 21019G25KT 20/M05 A2961 RMK A01 T01991053  RH  018%=      5-min Rain = 0
KEN1 212146Z 20020KT 20/M05 A2961 RMK A01 T01991054  RH  018%=      5-min Rain = 0
KEN1 212147Z 21023G28KT 20/M05 A2961 RMK A01 T01991054  RH  018%=      5-min Rain = 0
KEN1 212148Z 21021KT 20/M06 A2961 RMK A01 T01981055  RH  018%=      5-min Rain = 0
KEN1 212149Z 21021KT 20/M06 A2961 RMK A01 T01981056  RH  018%=      5-min Rain = 0
KEN1 212150Z 21019G25KT 20/M06 A2961 RMK A01 T01981055  RH  018%=      5-min Rain = 0
KEN1 212151Z 21019KT 20/M05 A2961 RMK A01 T01971054  RH  018%=      5-min Rain = 0
KEN1 212152Z 21018KT 20/M05 A2961 RMK A01 T01971054  RH  018%=      5-min Rain = 0
KEN1 212153Z 21018KT 20/M06 A2961 RMK A01 T01971055  RH  018%=      5-min Rain = 0
KEN1 212154Z 21020KT 20/M06 A2961 RMK A01 T01961055  RH  018%=      5-min Rain = 0
KEN1 212155Z 21016KT 20/M06 A2961 RMK A01 T01961055  RH  018%=      5-min Rain = 0
KEN1 212156Z 20018G23KT 20/M06 A296 RMK A01 T01961055  RH  018%=      5-min Rain = 0
KEN1 212157Z 21017G22KT 20/M06 A296 RMK A01 T01961055  RH  018%=      5-min Rain = 0
KEN1 212158Z 21022KT 20/M06 A296 RMK A01 T01951056  RH  018%=      5-min Rain = 0
KEN1 212159Z 21019KT 20/M06 A296 RMK A01 T01951058  RH  018%=      5-min Rain = 0
KEN1 212200Z 21019G26KT 20/M06 A296 RMK A01 T01961055  RH  018%=      5-min Rain = 0
KEN1 212201Z 22021KT 20/M06 A296 RMK A01 T01961056  RH  018%=      5-min Rain = 0
KEN1 212202Z 21018G23KT 20/M06 A296 RMK A01 T01961057  RH  018%=      5-min Rain = 0
KEN1 212203Z 21022G27KT 20/M06 A296 RMK A01 T01971055  RH  018%=      5-min Rain = 0
KEN1 212204Z 21018KT 20/M06 A296 RMK A01 T01971055  RH  018%=      5-min Rain = 0
KEN1 212205Z 21017KT 20/M06 A296 RMK A01 T01981055  RH  018%=      5-min Rain = 0
KEN1 212206Z 21019KT 20/M05 A296 RMK A01 T01981054  RH  018%=      5-min Rain = 0
KEN1 212207Z 22016KT 20/M06 A296 RMK A01 T01991055  RH  018%=      5-min Rain = 0
KEN1 212208Z 21016KT 20/M05 A296 RMK A01 T02001053  RH  018%=      5-min Rain = 0
KEN1 212209Z 21021KT 20/M05 A2959 RMK A01 T02011054  RH  017%=      5-min Rain = 0
KEN1 212210Z 21021KT 20/M06 A2959 RMK A01 T02011056  RH  017%=      5-min Rain = 0
KEN1 212211Z 21023KT 20/M06 A2959 RMK A01 T02011057  RH  017%=      5-min Rain = 0
KEN1 212212Z 21019G24KT 20/M06 A2959 RMK A01 T02011057  RH  017%=      5-min Rain = 0
KEN1 212213Z 21020G26KT 20/M05 A296 RMK A01 T02021054  RH  017%=      5-min Rain = 0
KEN1 212214Z 21019KT 20/M06 A296 RMK A01 T02031055  RH  017%=      5-min Rain = 0
KEN1 212215Z 21021KT 20/M06 A296 RMK A01 T02031056  RH  017%=      5-min Rain = 0
KEN1 212216Z 21021KT 20/M06 A2959 RMK A01 T02031058  RH  017%=      5-min Rain = 0
KEN1 212217Z 22021G28KT 20/M06 A296 RMK A01 T02021057  RH  017%=      5-min Rain = 0
KEN1 212218Z 22023KT 20/M06 A296 RMK A01 T02011061  RH  017%=      5-min Rain = 0
KEN1 212219Z 22021KT 20/M06 A296 RMK A01 T02011061  RH  016%=      5-min Rain = 0
KEN1 212220Z 22022KT 20/M06 A296 RMK A01 T02011061  RH  016%=      5-min Rain = 0
KEN1 212221Z 22022KT 20/M06 A296 RMK A01 T02011061  RH  016%=      5-min Rain = 0
KEN1 212222Z 22021G26KT 20/M06 A296 RMK A01 T02021062  RH  016%=      5-min Rain = 0
KEN1 212223Z 22021KT 20/M06 A296 RMK A01 T02021061  RH  016%=      5-min Rain = 0
KEN1 212224Z 22024KT 20/M06 A296 RMK A01 T02031062  RH  016%=      5-min Rain = 0
KEN1 212225Z 22024KT 20/M06 A296 RMK A01 T02031063  RH  016%=      5-min Rain = 0
KEN1 212226Z 22020KT 20/M06 A296 RMK A01 T02031062  RH  016%=      5-min Rain = 0
KEN1 212227Z 22021KT 20/M06 A296 RMK A01 T02021062  RH  016%=      5-min Rain = 0
KEN1 212228Z 22018KT 20/M06 A296 RMK A01 T02011062  RH  016%=      5-min Rain = 0
KEN1 212229Z 22017KT 20/M06 A296 RMK A01 T02001061  RH  017%=      5-min Rain = 0
KEN1 212230Z 22017KT 20/M06 A296 RMK A01 T01991060  RH  017%=      5-min Rain = 0
KEN1 212231Z 22017G22KT 20/M06 A296 RMK A01 T01971060  RH  017%=      5-min Rain = 0
KEN1 212232Z 22016KT 20/M06 A296 RMK A01 T01971060  RH  017%=      5-min Rain = 0
KEN1 212233Z 22018KT 20/M06 A296 RMK A01 T01961060  RH  017%=      5-min Rain = 0
KEN1 212234Z 22016KT 20/M06 A296 RMK A01 T01961059  RH  017%=      5-min Rain = 0
KEN1 212235Z 21018KT 20/M06 A296 RMK A01 T01951059  RH  017%=      5-min Rain = 0
KEN1 212236Z 22016KT 20/M06 A296 RMK A01 T01951061  RH  017%=      5-min Rain = 0
KEN1 212237Z 22015KT 20/M06 A296 RMK A01 T01951061  RH  017%=      5-min Rain = 0
KEN1 212238Z 21015KT 19/M06 A296 RMK A01 T01931059  RH  018%=      5-min Rain = 0
KEN1 212239Z 21015KT 19/M06 A2959 RMK A01 T01921060  RH  018%=      5-min Rain = 0
KEN1 212240Z 21016KT 19/M06 A2959 RMK A01 T01921060  RH  018%=      5-min Rain = 0
KEN1 212241Z 22015KT 19/M06 A2959 RMK A01 T01911061  RH  018%=      5-min Rain = 0
KEN1 212242Z 21015KT 19/M06 A2959 RMK A01 T01901062  RH  018%=      5-min Rain = 0
KEN1 212243Z 21015KT 19/M06 A2959 RMK A01 T01901062  RH  018%=      5-min Rain = 0
KEN1 212244Z 21015KT 19/M06 A2959 RMK A01 T01901063  RH  017%=      5-min Rain = 0
KEN1 212245Z 21014KT 19/M06 A2959 RMK A01 T01891063  RH  017%=      5-min Rain = 0
KEN1 212246Z 21014KT 19/M06 A2959 RMK A01 T01891063  RH  018%=      5-min Rain = 0
KEN1 212247Z 21014KT 19/M06 A2959 RMK A01 T01881063  RH  018%=      5-min Rain = 0
KEN1 212248Z 21014KT 19/M06 A2959 RMK A01 T01881063  RH  018%=      5-min Rain = 0
KEN1 212249Z 21012KT 19/M06 A2959 RMK A01 T01881064  RH  018%=      5-min Rain = 0
KEN1 212250Z 21013KT 19/M06 A2959 RMK A01 T01881062  RH  018%=      5-min Rain = 0
KEN1 212251Z 21011KT 19/M06 A2959 RMK A01 T01871061  RH  018%=      5-min Rain = 0
KEN1 212252Z 21011KT 19/M06 A2959 RMK A01 T01851060  RH  018%=      5-min Rain = 0
KEN1 212253Z 21011KT 19/M06 A2959 RMK A01 T01851060  RH  018%=      5-min Rain = 0
KEN1 212254Z 21010KT 18/M06 A2959 RMK A01 T01841061  RH  018%=      5-min Rain = 0
KEN1 212255Z 21009KT 18/M06 A2959 RMK A01 T01841059  RH  019%=      5-min Rain = 0
KEN1 212256Z 21010KT 18/M06 A2959 RMK A01 T01831058  RH  019%=      5-min Rain = 0
KEN1 212257Z 21010KT 18/M06 A2959 RMK A01 T01831058  RH  019%=      5-min Rain = 0
KEN1 212258Z 21010KT 18/M06 A2959 RMK A01 T01831057  RH  019%=      5-min Rain = 0
KEN1 212259Z 21010KT 18/M06 A2959 RMK A01 T01831057  RH  019%=      5-min Rain = 0
KEN1 212300Z 21009KT 18/M06 A2959 RMK A01 T01831055  RH  019%=      5-min Rain = 0
KEN1 212301Z 21009KT 18/M05 A2959 RMK A01 T01821054  RH  020%=      5-min Rain = 0
KEN1 212302Z 21010KT 18/M05 A2958 RMK A01 T01811054  RH  020%=      5-min Rain = 0
KEN1 212303Z 20009KT 18/M06 A2958 RMK A01 T01811055  RH  020%=      5-min Rain = 0
KEN1 212304Z 20008KT 18/M05 A2958 RMK A01 T01821053  RH  020%=      5-min Rain = 0
KEN1 212305Z 20008KT 18/M05 A2958 RMK A01 T01811051  RH  020%=      5-min Rain = 0
KEN1 212306Z 20008KT 18/M05 A2958 RMK A01 T01801052  RH  020%=      5-min Rain = 0
KEN1 212307Z 20009KT 18/M05 A2958 RMK A01 T01801050  RH  020%=      5-min Rain = 0
KEN1 212308Z 20009KT 18/M05 A2958 RMK A01 T01801050  RH  021%=      5-min Rain = 0
KEN1 212309Z 20008KT 18/M05 A2958 RMK A01 T01791050  RH  021%=      5-min Rain = 0
KEN1 212310Z 21008KT 18/M05 A2958 RMK A01 T01791049  RH  021%=      5-min Rain = 0
KEN1 212311Z 21007KT 18/M05 A2958 RMK A01 T01791048  RH  021%=      5-min Rain = 0
KEN1 212312Z 21008KT 18/M05 A2958 RMK A01 T01781047  RH  021%=      5-min Rain = 0
KEN1 212313Z 21008KT 18/M05 A2958 RMK A01 T01781047  RH  021%=      5-min Rain = 0
KEN1 212314Z 21008KT 18/M05 A2958 RMK A01 T01781047  RH  021%=      5-min Rain = 0
KEN1 212315Z 21010KT 18/M05 A2958 RMK A01 T01781048  RH  021%=      5-min Rain = 0
KEN1 212316Z 21008KT 18/M05 A2958 RMK A01 T01791047  RH  021%=      5-min Rain = 0
KEN1 212317Z 22008KT 18/M05 A2958 RMK A01 T01791047  RH  021%=      5-min Rain = 0
KEN1 212318Z 21007KT 18/M05 A2958 RMK A01 T01791048  RH  021%=      5-min Rain = 0
KEN1 212319Z 21008KT 18/M05 A2958 RMK A01 T01791046  RH  021%=      5-min Rain = 0
KEN1 212320Z 21009KT 18/M05 A2958 RMK A01 T01781046  RH  021%=      5-min Rain = 0
KEN1 212321Z 20011KT 18/M05 A2958 RMK A01 T01781047  RH  021%=      5-min Rain = 0
KEN1 212322Z 21011KT 18/M05 A2958 RMK A01 T01791047  RH  021%=      5-min Rain = 0
KEN1 212323Z 21009KT 18/M05 A2958 RMK A01 T01801047  RH  021%=      5-min Rain = 0
KEN1 212324Z 21010KT 18/M05 A2958 RMK A01 T01801046  RH  021%=      5-min Rain = 0
KEN1 212325Z 21011KT 18/M05 A2957 RMK A01 T01801048  RH  021%=      5-min Rain = 0
KEN1 212326Z 21011KT 18/M05 A2958 RMK A01 T01801048  RH  021%=      5-min Rain = 0
KEN1 212327Z 21013KT 18/M05 A2957 RMK A01 T01801047  RH  021%=      5-min Rain = 0
KEN1 212328Z 21011KT 18/M05 A2958 RMK A01 T01801049  RH  021%=      5-min Rain = 0
KEN1 212329Z 21010KT 18/M05 A2957 RMK A01 T01801047  RH  021%=      5-min Rain = 0
KEN1 212330Z 21011KT 18/M05 A2957 RMK A01 T01791048  RH  021%=      5-min Rain = 0
KEN1 212331Z 21010KT 18/M05 A2957 RMK A01 T01801049  RH  021%=      5-min Rain = 0
KEN1 212332Z 21010KT 18/M05 A2957 RMK A01 T01801047  RH  021%=      5-min Rain = 0
KEN1 212333Z 20010KT 18/M05 A2957 RMK A01 T01791048  RH  021%=      5-min Rain = 0
KEN1 212334Z 21011KT 18/M05 A2957 RMK A01 T01791049  RH  021%=      5-min Rain = 0
KEN1 212335Z 21011KT 18/M05 A2957 RMK A01 T01791049  RH  021%=      5-min Rain = 0
KEN1 212336Z 21009KT 18/M05 A2957 RMK A01 T01791049  RH  021%=      5-min Rain = 0
KEN1 212337Z 21010KT 18/M05 A2957 RMK A01 T01781048  RH  021%=      5-min Rain = 0
KEN1 212338Z 21009KT 18/M05 A2957 RMK A01 T01771049  RH  021%=      5-min Rain = 0
KEN1 212339Z 21009KT 18/M05 A2957 RMK A01 T01761048  RH  021%=      5-min Rain = 0
KEN1 212340Z 21008G13KT 18/M05 A2957 RMK A01 T01761048  RH  021%=      5-min Rain = 0
KEN1 212341Z 22011KT 18/M05 A2957 RMK A01 T01751049  RH  021%=      5-min Rain = 0
KEN1 212342Z 22012KT 18/M05 A2957 RMK A01 T01761051  RH  021%=      5-min Rain = 0
KEN1 212343Z 22012KT 18/M05 A2957 RMK A01 T01761051  RH  021%=      5-min Rain = 0
KEN1 212344Z 22010KT 18/M05 A2957 RMK A01 T01761051  RH  021%=      5-min Rain = 0
KEN1 212345Z 21012KT 18/M05 A2957 RMK A01 T01761050  RH  021%=      5-min Rain = 0
KEN1 212346Z 22010KT 18/M05 A2957 RMK A01 T01751051  RH  021%=      5-min Rain = 0
KEN1 212347Z 22010KT 18/M05 A2957 RMK A01 T01751050  RH  021%=      5-min Rain = 0
KEN1 212348Z 22011KT 17/M05 A2957 RMK A01 T01741052  RH  021%=      5-min Rain = 0
KEN1 212349Z 22010KT 17/M05 A2957 RMK A01 T01741052  RH  021%=      5-min Rain = 0
KEN1 212350Z 22009KT 17/M05 A2957 RMK A01 T01731052  RH  021%=      5-min Rain = 0
KEN1 212351Z 22009KT 17/M05 A2957 RMK A01 T01711051  RH  021%=      5-min Rain = 0
KEN1 212352Z 22008KT 17/M05 A2957 RMK A01 T01701052  RH  022%=      5-min Rain = 0
KEN1 212353Z 22009KT 17/M05 A2957 RMK A01 T01691051  RH  022%=      5-min Rain = 0
KEN1 212354Z 21009KT 17/M05 A2957 RMK A01 T01681051  RH  022%=      5-min Rain = 0
KEN1 212355Z 21011KT 17/M05 A2957 RMK A01 T01681052  RH  022%=      5-min Rain = 0
KEN1 212356Z 21010KT 17/M05 A2957 RMK A01 T01691052  RH  022%=      5-min Rain = 0
KEN1 212357Z 21011KT 17/M05 A2957 RMK A01 T01701051  RH  022%=      5-min Rain = 0
KEN1 212358Z 21010KT 17/M05 A2957 RMK A01 T01701052  RH  021%=      5-min Rain = 0
KEN1 212359Z 21008KT 17/M05 A2957 RMK A01 T01691052  RH  022%=      5-min Rain = 0
KEN1 220000Z 21008KT 17/M05 A2957 RMK A01 T01681051  RH  022%=      5-min Rain = 0
KEN1 220001Z 21008KT 17/M05 A2957 RMK A01 T01661051  RH  022%=      5-min Rain = 0
KEN1 220002Z 20008KT 17/M05 A2957 RMK A01 T01651051  RH  022%=      5-min Rain = 0
KEN1 220003Z 21008KT 16/M05 A2957 RMK A01 T01641052  RH  022%=      5-min Rain = 0
KEN1 220004Z 21008KT 16/M05 A2957 RMK A01 T01641051  RH  022%=      5-min Rain = 0
KEN1 220005Z 21007KT 16/M05 A2957 RMK A01 T01631051  RH  023%=      5-min Rain = 0
KEN1 220006Z 21008KT 16/M05 A2956 RMK A01 T01611051  RH  023%=      5-min Rain = 0
KEN1 220007Z 21008KT 16/M05 A2956 RMK A01 T01611052  RH  023%=      5-min Rain = 0
KEN1 220008Z 21007KT 16/M05 A2956 RMK A01 T01601052  RH  023%=      5-min Rain = 0
KEN1 220009Z 21008KT 16/M05 A2956 RMK A01 T01581052  RH  023%=      5-min Rain = 0
KEN1 220010Z 21008KT 16/M05 A2956 RMK A01 T01571052  RH  023%=      5-min Rain = 0
KEN1 220011Z 20009KT 16/M05 A2956 RMK A01 T01571052  RH  023%=      5-min Rain = 0
KEN1 220012Z 20009KT 16/M05 A2956 RMK A01 T01571052  RH  023%=      5-min Rain = 0
KEN1 220013Z 20008KT 16/M05 A2956 RMK A01 T01561052  RH  023%=      5-min Rain = 0
KEN1 220014Z 20009KT 16/M05 A2956 RMK A01 T01571053  RH  023%=      5-min Rain = 0
KEN1 220015Z 20010KT 16/M05 A2956 RMK A01 T01571053  RH  023%=      5-min Rain = 0
KEN1 220016Z 19010KT 16/M05 A2956 RMK A01 T01571054  RH  023%=      5-min Rain = 0
KEN1 220017Z 19009KT 16/M05 A2956 RMK A01 T01571053  RH  023%=      5-min Rain = 0
KEN1 220018Z 20011KT 16/M05 A2956 RMK A01 T01571054  RH  023%=      5-min Rain = 0
KEN1 220019Z 20009KT 16/M05 A2956 RMK A01 T01571053  RH  023%=      5-min Rain = 0
KEN1 220020Z 20010KT 16/M05 A2956 RMK A01 T01551054  RH  023%=      5-min Rain = 0
KEN1 220021Z 20010KT 15/M05 A2956 RMK A01 T01541053  RH  023%=      5-min Rain = 0
KEN1 220022Z 20011KT 15/M05 A2956 RMK A01 T01541054  RH  023%=      5-min Rain = 0
KEN1 220023Z 20011KT 16/M05 A2956 RMK A01 T01551054  RH  023%=      5-min Rain = 0
KEN1 220024Z 20011KT 16/M06 A2956 RMK A01 T01551055  RH  023%=      5-min Rain = 0
KEN1 220025Z 20012KT 16/M06 A2956 RMK A01 T01571056  RH  023%=      5-min Rain = 0
KEN1 220026Z 20012KT 16/M06 A2956 RMK A01 T01581057  RH  022%=      5-min Rain = 0
KEN1 220027Z 20012KT 16/M06 A2956 RMK A01 T01581057  RH  022%=      5-min Rain = 0
KEN1 220028Z 20013KT 16/M06 A2956 RMK A01 T01581058  RH  022%=      5-min Rain = 0
KEN1 220029Z 20012KT 16/M06 A2956 RMK A01 T01591058  RH  022%=      5-min Rain = 0
KEN1 220030Z 20012KT 16/M06 A2956 RMK A01 T01581058  RH  022%=      5-min Rain = 0
KEN1 220031Z 20013KT 16/M06 A2956 RMK A01 T01571059  RH  022%=      5-min Rain = 0
KEN1 220032Z 20012KT 16/M06 A2956 RMK A01 T01571059  RH  022%=      5-min Rain = 0
KEN1 220033Z 20010KT 16/M06 A2956 RMK A01 T01561059  RH  022%=      5-min Rain = 0
KEN1 220034Z 20010KT 16/M06 A2956 RMK A01 T01551059  RH  022%=      5-min Rain = 0
KEN1 220035Z 20012KT 15/M06 A2956 RMK A01 T01541059  RH  023%=      5-min Rain = 0
KEN1 220036Z 20013KT 15/M06 A2956 RMK A01 T01531060  RH  022%=      5-min Rain = 0
KEN1 220037Z 20013KT 16/M06 A2956 RMK A01 T01551060  RH  022%=      5-min Rain = 0
KEN1 220038Z 20013KT 16/M06 A2956 RMK A01 T01551061  RH  022%=      5-min Rain = 0
KEN1 220039Z 20012KT 16/M06 A2956 RMK A01 T01551061  RH  022%=      5-min Rain = 0
KEN1 220040Z 20011KT 16/M06 A2956 RMK A01 T01551061  RH  022%=      5-min Rain = 0
KEN1 220041Z 20011KT 15/M06 A2956 RMK A01 T01531060  RH  022%=      5-min Rain = 0
KEN1 220042Z 20012KT 15/M06 A2956 RMK A01 T01511060  RH  023%=      5-min Rain = 0
KEN1 220043Z 20012KT 15/M06 A2956 RMK A01 T01511060  RH  023%=      5-min Rain = 0
KEN1 220044Z 20012KT 15/M06 A2956 RMK A01 T01501060  RH  023%=      5-min Rain = 0
KEN1 220045Z 20012KT 15/M06 A2956 RMK A01 T01501061  RH  023%=      5-min Rain = 0
KEN1 220046Z 20011KT 15/M06 A2956 RMK A01 T01501061  RH  023%=      5-min Rain = 0
KEN1 220047Z 20011KT 15/M06 A2956 RMK A01 T01501060  RH  023%=      5-min Rain = 0
KEN1 220048Z 20012KT 15/M06 A2956 RMK A01 T01501060  RH  023%=      5-min Rain = 0
KEN1 220049Z 20011KT 15/M06 A2956 RMK A01 T01491060  RH  023%=      5-min Rain = 0
KEN1 220050Z 20011KT 15/M06 A2956 RMK A01 T01491060  RH  023%=      5-min Rain = 0
KEN1 220051Z 20011KT 15/M06 A2956 RMK A01 T01481059  RH  023%=      5-min Rain = 0
KEN1 220052Z 20011KT 15/M06 A2956 RMK A01 T01471059  RH  024%=      5-min Rain = 0
KEN1 220053Z 20010KT 15/M06 A2956 RMK A01 T01461059  RH  024%=      5-min Rain = 0
KEN1 220054Z 19011KT 15/M06 A2956 RMK A01 T01451059  RH  024%=      5-min Rain = 0
KEN1 220055Z 20010KT 15/M06 A2956 RMK A01 T01451059  RH  024%=      5-min Rain = 0
KEN1 220056Z 20010KT 14/M06 A2956 RMK A01 T01441059  RH  024%=      5-min Rain = 0
KEN1 220057Z 19010KT 14/M06 A2956 RMK A01 T01431059  RH  024%=      5-min Rain = 0
KEN1 220058Z 19011KT 14/M06 A2956 RMK A01 T01421058  RH  025%=      5-min Rain = 0
KEN1 220059Z 19011KT 14/M06 A2956 RMK A01 T01411058  RH  025%=      5-min Rain = 0
KEN1 220100Z 19010KT 14/M06 A2956 RMK A01 T01401058  RH  025%=      5-min Rain = 0
KEN1 220101Z 19010KT 14/M06 A2955 RMK A01 T01391058  RH  025%=      5-min Rain = 0
KEN1 220102Z 19009KT 14/M06 A2955 RMK A01 T01381058  RH  025%=      5-min Rain = 0
KEN1 220103Z 19009KT 14/M06 A2955 RMK A01 T01361058  RH  025%=      5-min Rain = 0
KEN1 220104Z 19010KT 14/M06 A2955 RMK A01 T01351058  RH  026%=      5-min Rain = 0
KEN1 220105Z 19010KT 14/M06 A2955 RMK A01 T01351058  RH  026%=      5-min Rain = 0
KEN1 220106Z 20010KT 14/M06 A2955 RMK A01 T01351058  RH  026%=      5-min Rain = 0
KEN1 220107Z 20011KT 14/M06 A2955 RMK A01 T01351058  RH  026%=      5-min Rain = 0
KEN1 220108Z 20011KT 14/M06 A2955 RMK A01 T01361059  RH  025%=      5-min Rain = 0
KEN1 220109Z 20011KT 14/M06 A2955 RMK A01 T01361059  RH  025%=      5-min Rain = 0
KEN1 220110Z 20010KT 14/M06 A2955 RMK A01 T01371059  RH  025%=      5-min Rain = 0
KEN1 220111Z 20012KT 14/M06 A2955 RMK A01 T01371059  RH  025%=      5-min Rain = 0
KEN1 220112Z 21012KT 14/M06 A2955 RMK A01 T01381059  RH  025%=      5-min Rain = 0
KEN1 220113Z 20011KT 14/M06 A2955 RMK A01 T01401060  RH  025%=      5-min Rain = 0
KEN1 220114Z 20011KT 14/M06 A2955 RMK A01 T01401060  RH  025%=      5-min Rain = 0
KEN1 220115Z 20012KT 14/M06 A2955 RMK A01 T01391059  RH  025%=      5-min Rain = 0
KEN1 220116Z 20012KT 14/M06 A2955 RMK A01 T01381060  RH  025%=      5-min Rain = 0
KEN1 220117Z 20012KT 14/M06 A2955 RMK A01 T01381060  RH  025%=      5-min Rain = 0
KEN1 220118Z 20011KT 14/M06 A2955 RMK A01 T01381059  RH  025%=      5-min Rain = 0
KEN1 220119Z 20011KT 14/M06 A2955 RMK A01 T01371059  RH  025%=      5-min Rain = 0
KEN1 220120Z 20012KT 14/M06 A2955 RMK A01 T01361059  RH  025%=      5-min Rain = 0
KEN1 220121Z 20011KT 14/M06 A2955 RMK A01 T01361059  RH  025%=      5-min Rain = 0
KEN1 220122Z 20011KT 14/M06 A2955 RMK A01 T01361059  RH  025%=      5-min Rain = 0
KEN1 220123Z 20011KT 14/M06 A2955 RMK A01 T01361059  RH  025%=      5-min Rain = 0
KEN1 220124Z 20011KT 14/M06 A2955 RMK A01 T01351059  RH  025%=      5-min Rain = 0
KEN1 220125Z 20011KT 14/M06 A2955 RMK A01 T01351059  RH  026%=      5-min Rain = 0
KEN1 220126Z 20011KT 13/M06 A2956 RMK A01 T01341059  RH  026%=      5-min Rain = 0
KEN1 220127Z 20011KT 13/M06 A2956 RMK A01 T01331058  RH  026%=      5-min Rain = 0
KEN1 220128Z 20011KT 13/M06 A2956 RMK A01 T01321058  RH  026%=      5-min Rain = 0
KEN1 220129Z 20011KT 13/M06 A2956 RMK A01 T01311058  RH  026%=      5-min Rain = 0
KEN1 220130Z 20011KT 13/M06 A2956 RMK A01 T01311057  RH  027%=      5-min Rain = 0
KEN1 220131Z 20011KT 13/M06 A2956 RMK A01 T01301058  RH  027%=      5-min Rain = 0
KEN1 220132Z 20011KT 13/M06 A2956 RMK A01 T01291057  RH  027%=      5-min Rain = 0
KEN1 220133Z 20012KT 13/M06 A2956 RMK A01 T01291058  RH  027%=      5-min Rain = 0
KEN1 220134Z 20011KT 13/M06 A2956 RMK A01 T01291058  RH  027%=      5-min Rain = 0
KEN1 220135Z 20011KT 13/M06 A2956 RMK A01 T01291057  RH  027%=      5-min Rain = 0
KEN1 220136Z 20011KT 13/M06 A2956 RMK A01 T01281057  RH  027%=      5-min Rain = 0
KEN1 220137Z 20011KT 13/M06 A2956 RMK A01 T01271057  RH  027%=      5-min Rain = 0
KEN1 220138Z 20011KT 13/M06 A2955 RMK A01 T01271057  RH  027%=      5-min Rain = 0
KEN1 220139Z 20012KT 13/M06 A2955 RMK A01 T01261057  RH  027%=      5-min Rain = 0
KEN1 220140Z 20012KT 13/M06 A2955 RMK A01 T01261057  RH  028%=      5-min Rain = 0
KEN1 220141Z 20013KT 13/M06 A2955 RMK A01 T01261057  RH  027%=      5-min Rain = 0
KEN1 220142Z 20013KT 13/M06 A2955 RMK A01 T01261057  RH  027%=      5-min Rain = 0
KEN1 220143Z 20013KT 13/M06 A2955 RMK A01 T01261057  RH  027%=      5-min Rain = 0
KEN1 220144Z 19013KT 13/M06 A2955 RMK A01 T01261057  RH  027%=      5-min Rain = 0
KEN1 220145Z 19014KT 13/M06 A2955 RMK A01 T01261058  RH  027%=      5-min Rain = 0
KEN1 220146Z 19014KT 13/M06 A2955 RMK A01 T01261058  RH  027%=      5-min Rain = 0
KEN1 220147Z 19014KT 13/M06 A2955 RMK A01 T01271059  RH  027%=      5-min Rain = 0
KEN1 220148Z 19013KT 13/M06 A2955 RMK A01 T01281059  RH  027%=      5-min Rain = 0
KEN1 220149Z 18012KT 13/M06 A2955 RMK A01 T01281058  RH  027%=      5-min Rain = 0
KEN1 220150Z 18010KT 13/M06 A2955 RMK A01 T01261057  RH  028%=      5-min Rain = 0
KEN1 220151Z 18011KT 12/M06 A2955 RMK A01 T01221057  RH  028%=      5-min Rain = 0
KEN1 220152Z 18013KT 12/M06 A2955 RMK A01 T01201057  RH  028%=      5-min Rain = 0
KEN1 220153Z 19013KT 12/M06 A2955 RMK A01 T01211058  RH  028%=      5-min Rain = 0
KEN1 220154Z 20013KT 12/M06 A2955 RMK A01 T01241058  RH  028%=      5-min Rain = 0
KEN1 220155Z 20015KT 13/M06 A2955 RMK A01 T01261059  RH  027%=      5-min Rain = 0
KEN1 220156Z 20015KT 13/M06 A2955 RMK A01 T01291058  RH  027%=      5-min Rain = 0
KEN1 220157Z 19015KT 13/M06 A2955 RMK A01 T01301058  RH  027%=      5-min Rain = 0
KEN1 220158Z 20016KT 13/M06 A2955 RMK A01 T01311059  RH  026%=      5-min Rain = 0
KEN1 220159Z 20016KT 13/M06 A2955 RMK A01 T01321058  RH  026%=      5-min Rain = 0
KEN1 220200Z 20015KT 13/M06 A2955 RMK A01 T01321059  RH  026%=      5-min Rain = 0
KEN1 220201Z 19015KT 13/M06 A2955 RMK A01 T01331059  RH  026%=      5-min Rain = 0
KEN1 220202Z 19016KT 13/M06 A2955 RMK A01 T01331059  RH  026%=      5-min Rain = 0
KEN1 220203Z 19016KT 13/M06 A2955 RMK A01 T01331058  RH  026%=      5-min Rain = 0
KEN1 220204Z 20016KT 13/M06 A2955 RMK A01 T01331059  RH  026%=      5-min Rain = 0
KEN1 220205Z 20016KT 14/M06 A2955 RMK A01 T01351059  RH  026%=      5-min Rain = 0
KEN1 220206Z 20017KT 14/M06 A2955 RMK A01 T01351059  RH  026%=      5-min Rain = 0
KEN1 220207Z 20018KT 14/M06 A2955 RMK A01 T01361058  RH  026%=      5-min Rain = 0
KEN1 220208Z 20018KT 14/M06 A2955 RMK A01 T01361059  RH  025%=      5-min Rain = 0
KEN1 220209Z 20018G23KT 14/M06 A2955 RMK A01 T01371058  RH  025%=      5-min Rain = 0
KEN1 220210Z 21018KT 14/M06 A2955 RMK A01 T01361058  RH  025%=      5-min Rain = 0
KEN1 220211Z 21017KT 14/M06 A2955 RMK A01 T01361059  RH  025%=      5-min Rain = 0
KEN1 220212Z 21017KT 14/M06 A2955 RMK A01 T01361059  RH  025%=      5-min Rain = 0
KEN1 220213Z 20017KT 14/M06 A2955 RMK A01 T01351058  RH  026%=      5-min Rain = 0
KEN1 220214Z 20016KT 13/M06 A2955 RMK A01 T01341058  RH  026%=      5-min Rain = 0
KEN1 220215Z 21015KT 13/M06 A2955 RMK A01 T01331057  RH  026%=      5-min Rain = 0
KEN1 220216Z 21015KT 13/M06 A2955 RMK A01 T01311057  RH  027%=      5-min Rain = 0
KEN1 220217Z 21014KT 13/M06 A2955 RMK A01 T01301057  RH  027%=      5-min Rain = 0
KEN1 220218Z 20015KT 13/M06 A2955 RMK A01 T01291057  RH  027%=      5-min Rain = 0
KEN1 220219Z 20016KT 13/M06 A2955 RMK A01 T01281056  RH  027%=      5-min Rain = 0
KEN1 220220Z 20015KT 13/M06 A2955 RMK A01 T01281056  RH  027%=      5-min Rain = 0
KEN1 220221Z 20017KT 13/M06 A2954 RMK A01 T01271056  RH  027%=      5-min Rain = 0
KEN1 220222Z 20016KT 13/M06 A2954 RMK A01 T01271057  RH  027%=      5-min Rain = 0
KEN1 220223Z 21016KT 13/M06 A2955 RMK A01 T01281057  RH  027%=      5-min Rain = 0
KEN1 220224Z 21016KT 13/M06 A2955 RMK A01 T01281057  RH  027%=      5-min Rain = 0
KEN1 220225Z 21016KT 13/M06 A2955 RMK A01 T01281057  RH  027%=      5-min Rain = 0
KEN1 220226Z 20018KT 13/M06 A2955 RMK A01 T01281057  RH  027%=      5-min Rain = 0
KEN1 220227Z 21017KT 13/M06 A2954 RMK A01 T01281057  RH  027%=      5-min Rain = 0
KEN1 220228Z 20018G23KT 13/M06 A2954 RMK A01 T01291057  RH  027%=      5-min Rain = 0
KEN1 220229Z 20019KT 13/M06 A2954 RMK A01 T01301058  RH  027%=      5-min Rain = 0
KEN1 220230Z 20019KT 13/M06 A2954 RMK A01 T01311058  RH  026%=      5-min Rain = 0
KEN1 220231Z 20019KT 13/M06 A2954 RMK A01 T01321058  RH  026%=      5-min Rain = 0
KEN1 220232Z 20019KT 13/M06 A2954 RMK A01 T01321058  RH  026%=      5-min Rain = 0
KEN1 220233Z 20020KT 13/M06 A2954 RMK A01 T01321058  RH  026%=      5-min Rain = 0
KEN1 220234Z 21017KT 13/M06 A2954 RMK A01 T01331058  RH  026%=      5-min Rain = 0
KEN1 220235Z 20017KT 13/M06 A2955 RMK A01 T01311058  RH  026%=      5-min Rain = 0
KEN1 220236Z 21017KT 13/M06 A2955 RMK A01 T01301057  RH  027%=      5-min Rain = 0
KEN1 220237Z 20017KT 13/M06 A2955 RMK A01 T01291058  RH  027%=      5-min Rain = 0
KEN1 220238Z 21015KT 13/M06 A2955 RMK A01 T01291057  RH  027%=      5-min Rain = 0
KEN1 220239Z 21017KT 13/M06 A2955 RMK A01 T01281057  RH  027%=      5-min Rain = 0
KEN1 220240Z 21016KT 13/M06 A2955 RMK A01 T01281057  RH  027%=      5-min Rain = 0
KEN1 220241Z 21015KT 13/M06 A2955 RMK A01 T01281057  RH  027%=      5-min Rain = 0
KEN1 220242Z 21016KT 13/M06 A2955 RMK A01 T01281057  RH  027%=      5-min Rain = 0
KEN1 220243Z 21015KT 13/M06 A2955 RMK A01 T01271057  RH  027%=      5-min Rain = 0
KEN1 220244Z 21015KT 13/M06 A2955 RMK A01 T01261057  RH  027%=      5-min Rain = 0
KEN1 220245Z 21015KT 13/M06 A2955 RMK A01 T01261058  RH  027%=      5-min Rain = 0
KEN1 220246Z 21014KT 13/M06 A2955 RMK A01 T01261057  RH  027%=      5-min Rain = 0
KEN1 220247Z 21014KT 13/M06 A2955 RMK A01 T01251057  RH  027%=      5-min Rain = 0
KEN1 220248Z 20015KT 13/M06 A2955 RMK A01 T01251057  RH  028%=      5-min Rain = 0
KEN1 220249Z 20014KT 13/M06 A2955 RMK A01 T01251057  RH  028%=      5-min Rain = 0
KEN1 220250Z 20015KT 12/M06 A2955 RMK A01 T01241058  RH  028%=      5-min Rain = 0
KEN1 220251Z 20013KT 12/M06 A2955 RMK A01 T01241058  RH  028%=      5-min Rain = 0
KEN1 220252Z 20014KT 12/M06 A2955 RMK A01 T01241058  RH  028%=      5-min Rain = 0
KEN1 220253Z 21014KT 12/M06 A2955 RMK A01 T01231058  RH  028%=      5-min Rain = 0
KEN1 220254Z 20014KT 12/M06 A2955 RMK A01 T01231058  RH  028%=      5-min Rain = 0
KEN1 220255Z 20015KT 12/M06 A2955 RMK A01 T01231058  RH  028%=      5-min Rain = 0
KEN1 220256Z 20015KT 12/M06 A2955 RMK A01 T01241058  RH  028%=      5-min Rain = 0
KEN1 220257Z 20016KT 13/M06 A2955 RMK A01 T01251058  RH  027%=      5-min Rain = 0
KEN1 220258Z 21014KT 13/M06 A2955 RMK A01 T01251059  RH  027%=      5-min Rain = 0
KEN1 220259Z 21013KT 13/M06 A2955 RMK A01 T01251059  RH  027%=      5-min Rain = 0
KEN1 220300Z 20015KT 13/M06 A2955 RMK A01 T01251059  RH  027%=      5-min Rain = 0
KEN1 220301Z 21015KT 13/M06 A2955 RMK A01 T01251059  RH  027%=      5-min Rain = 0
KEN1 220302Z 20015KT 13/M06 A2955 RMK A01 T01251059  RH  027%=      5-min Rain = 0
KEN1 220303Z 20017KT 13/M06 A2955 RMK A01 T01251059  RH  027%=      5-min Rain = 0
KEN1 220304Z 20015KT 13/M06 A2955 RMK A01 T01251059  RH  027%=      5-min Rain = 0
KEN1 220305Z 20015KT 13/M06 A2955 RMK A01 T01251059  RH  027%=      5-min Rain = 0
KEN1 220306Z 20015KT 13/M06 A2955 RMK A01 T01251059  RH  027%=      5-min Rain = 0
KEN1 220307Z 20015KT 13/M06 A2955 RMK A01 T01251059  RH  027%=      5-min Rain = 0
KEN1 220308Z 20016KT 13/M06 A2955 RMK A01 T01251059  RH  027%=      5-min Rain = 0
KEN1 220309Z 20016KT 12/M06 A2955 RMK A01 T01241059  RH  027%=      5-min Rain = 0
KEN1 220310Z 20016KT 12/M06 A2955 RMK A01 T01241059  RH  027%=      5-min Rain = 0
KEN1 220311Z 20018KT 13/M06 A2955 RMK A01 T01251059  RH  027%=      5-min Rain = 0
KEN1 220312Z 21017KT 13/M06 A2955 RMK A01 T01271060  RH  027%=      5-min Rain = 0
KEN1 220313Z 21015KT 13/M06 A2955 RMK A01 T01271059  RH  027%=      5-min Rain = 0
KEN1 220314Z 20015KT 13/M06 A2955 RMK A01 T01261059  RH  027%=      5-min Rain = 0
KEN1 220315Z 20015KT 13/M06 A2955 RMK A01 T01251060  RH  027%=      5-min Rain = 0
KEN1 220316Z 21015KT 12/M06 A2955 RMK A01 T01241060  RH  027%=      5-min Rain = 0
KEN1 220317Z 21014KT 12/M06 A2955 RMK A01 T01241059  RH  027%=      5-min Rain = 0
KEN1 220318Z 20014KT 12/M06 A2955 RMK A01 T01241060  RH  027%=      5-min Rain = 0
KEN1 220319Z 20014KT 12/M06 A2955 RMK A01 T01241059  RH  027%=      5-min Rain = 0
KEN1 220320Z 20014KT 12/M06 A2955 RMK A01 T01231060  RH  027%=      5-min Rain = 0
KEN1 220321Z 20014KT 12/M06 A2956 RMK A01 T01221060  RH  027%=      5-min Rain = 0
KEN1 220322Z 20014KT 12/M06 A2956 RMK A01 T01221060  RH  028%=      5-min Rain = 0
KEN1 220323Z 20014KT 12/M06 A2956 RMK A01 T01221060  RH  027%=      5-min Rain = 0
KEN1 220324Z 20013KT 12/M06 A2956 RMK A01 T01221060  RH  027%=      5-min Rain = 0
KEN1 220325Z 20013KT 12/M06 A2956 RMK A01 T01221060  RH  027%=      5-min Rain = 0
KEN1 220326Z 20013KT 12/M06 A2956 RMK A01 T01211060  RH  028%=      5-min Rain = 0
KEN1 220327Z 20012KT 12/M06 A2956 RMK A01 T01211060  RH  028%=      5-min Rain = 0
KEN1 220328Z 21012KT 12/M06 A2956 RMK A01 T01201060  RH  028%=      5-min Rain = 0
KEN1 220329Z 20012KT 12/M06 A2956 RMK A01 T01191060  RH  028%=      5-min Rain = 0
KEN1 220330Z 20012KT 12/M06 A2956 RMK A01 T01181060  RH  028%=      5-min Rain = 0
KEN1 220331Z 21011KT 12/M06 A2956 RMK A01 T01181059  RH  028%=      5-min Rain = 0
KEN1 220332Z 20011KT 12/M06 A2956 RMK A01 T01171059  RH  029%=      5-min Rain = 0
KEN1 220333Z 21012KT 12/M06 A2956 RMK A01 T01171059  RH  029%=      5-min Rain = 0
KEN1 220334Z 20012KT 12/M06 A2956 RMK A01 T01161059  RH  029%=      5-min Rain = 0
KEN1 220335Z 21012KT 12/M06 A2956 RMK A01 T01161059  RH  029%=      5-min Rain = 0
KEN1 220336Z 21012KT 12/M06 A2956 RMK A01 T01161060  RH  029%=      5-min Rain = 0
KEN1 220337Z 21012KT 12/M06 A2956 RMK A01 T01161060  RH  029%=      5-min Rain = 0
KEN1 220338Z 21013KT 12/M06 A2956 RMK A01 T01171060  RH  029%=      5-min Rain = 0
KEN1 220339Z 21012KT 12/M06 A2956 RMK A01 T01171059  RH  029%=      5-min Rain = 0
KEN1 220340Z 20011KT 12/M06 A2956 RMK A01 T01171059  RH  029%=      5-min Rain = 0
KEN1 220341Z 20011KT 12/M06 A2956 RMK A01 T01151059  RH  029%=      5-min Rain = 0
KEN1 220342Z 20011KT 12/M06 A2956 RMK A01 T01151058  RH  029%=      5-min Rain = 0
KEN1 220343Z 20012KT 11/M06 A2956 RMK A01 T01141059  RH  029%=      5-min Rain = 0
KEN1 220344Z 20012KT 12/M06 A2956 RMK A01 T01151059  RH  029%=      5-min Rain = 0
KEN1 220345Z 19013KT 12/M06 A2957 RMK A01 T01151058  RH  029%=      5-min Rain = 0
KEN1 220346Z 19014KT 12/M06 A2957 RMK A01 T01151058  RH  029%=      5-min Rain = 0
KEN1 220347Z 19014KT 12/M06 A2956 RMK A01 T01151058  RH  029%=      5-min Rain = 0
KEN1 220348Z 20015KT 12/M06 A2956 RMK A01 T01161058  RH  029%=      5-min Rain = 0
KEN1 220349Z 21016KT 12/M06 A2956 RMK A01 T01181058  RH  029%=      5-min Rain = 0
KEN1 220350Z 21016G21KT 12/M06 A2956 RMK A01 T01201059  RH  028%=      5-min Rain = 0
KEN1 220351Z 22016KT 12/M06 A2956 RMK A01 T01221059  RH  028%=      5-min Rain = 0
KEN1 220352Z 22015KT 12/M06 A2956 RMK A01 T01231060  RH  027%=      5-min Rain = 0
KEN1 220353Z 22014KT 12/M06 A2957 RMK A01 T01231059  RH  027%=      5-min Rain = 0
KEN1 220354Z 22015KT 12/M06 A2957 RMK A01 T01221059  RH  028%=      5-min Rain = 0
KEN1 220355Z 22015KT 12/M06 A2957 RMK A01 T01211059  RH  028%=      5-min Rain = 0
KEN1 220356Z 21013KT 12/M06 A2957 RMK A01 T01221059  RH  028%=      5-min Rain = 0
KEN1 220357Z 21014KT 12/M06 A2957 RMK A01 T01211059  RH  028%=      5-min Rain = 0
KEN1 220358Z 21012KT 12/M06 A2957 RMK A01 T01201059  RH  028%=      5-min Rain = 0
KEN1 220359Z 20011KT 12/M06 A2957 RMK A01 T01191059  RH  028%=      5-min Rain = 0
KEN1 220400Z 21011KT 12/M06 A2957 RMK A01 T01171059  RH  029%=      5-min Rain = 0
KEN1 220401Z 21010KT 12/M06 A2957 RMK A01 T01161058  RH  029%=      5-min Rain = 0
KEN1 220402Z 21013G18KT 11/M06 A2957 RMK A01 T01141058  RH  029%=      5-min Rain = 0
KEN1 220403Z 21014KT 11/M06 A2957 RMK A01 T01141059  RH  029%=      5-min Rain = 0
KEN1 220404Z 21014KT 12/M06 A2957 RMK A01 T01151058  RH  029%=      5-min Rain = 0
KEN1 220405Z 21013KT 12/M06 A2957 RMK A01 T01161059  RH  029%=      5-min Rain = 0
KEN1 220406Z 21014KT 12/M06 A2957 RMK A01 T01161059  RH  029%=      5-min Rain = 0
KEN1 220407Z 21013KT 12/M06 A2957 RMK A01 T01161059  RH  029%=      5-min Rain = 0
KEN1 220408Z 21013KT 12/M06 A2957 RMK A01 T01161059  RH  029%=      5-min Rain = 0
KEN1 220409Z 21013KT 11/M06 A2957 RMK A01 T01141059  RH  029%=      5-min Rain = 0
KEN1 220410Z 21012KT 11/M06 A2957 RMK A01 T01131058  RH  030%=      5-min Rain = 0
KEN1 220411Z 21011KT 11/M06 A2957 RMK A01 T01111059  RH  030%=      5-min Rain = 0
KEN1 220412Z 21011KT 11/M06 A2957 RMK A01 T01101059  RH  030%=      5-min Rain = 0
KEN1 220413Z 20011KT 11/M06 A2957 RMK A01 T01101058  RH  030%=      5-min Rain = 0
KEN1 220414Z 20011KT 11/M06 A2957 RMK A01 T01081059  RH  030%=      5-min Rain = 0
KEN1 220415Z 20011KT 11/M06 A2957 RMK A01 T01071059  RH  031%=      5-min Rain = 0
KEN1 220416Z 21011KT 11/M06 A2957 RMK A01 T01061058  RH  031%=      5-min Rain = 0
KEN1 220417Z 20011KT 11/M06 A2957 RMK A01 T01061059  RH  031%=      5-min Rain = 0
KEN1 220418Z 20012KT 11/M06 A2957 RMK A01 T01051059  RH  031%=      5-min Rain = 0
KEN1 220419Z 21012KT 11/M06 A2957 RMK A01 T01071058  RH  031%=      5-min Rain = 0
KEN1 220420Z 20013KT 11/M06 A2957 RMK A01 T01071059  RH  031%=      5-min Rain = 0
KEN1 220421Z 21014KT 11/M06 A2957 RMK A01 T01091059  RH  030%=      5-min Rain = 0
KEN1 220422Z 21013KT 11/M06 A2957 RMK A01 T01111059  RH  030%=      5-min Rain = 0
KEN1 220423Z 20012KT 11/M06 A2957 RMK A01 T01111059  RH  030%=      5-min Rain = 0
KEN1 220424Z 20013KT 11/M06 A2957 RMK A01 T01111059  RH  030%=      5-min Rain = 0
KEN1 220425Z 20012KT 11/M06 A2957 RMK A01 T01101059  RH  030%=      5-min Rain = 0
KEN1 220426Z 20012KT 11/M06 A2957 RMK A01 T01111058  RH  030%=      5-min Rain = 0
KEN1 220427Z 21012KT 11/M06 A2957 RMK A01 T01101059  RH  030%=      5-min Rain = 0
KEN1 220428Z 20013KT 11/M06 A2957 RMK A01 T01101059  RH  030%=      5-min Rain = 0
KEN1 220429Z 20013KT 11/M06 A2956 RMK A01 T01101058  RH  030%=      5-min Rain = 0
KEN1 220430Z 20014KT 11/M06 A2956 RMK A01 T01101059  RH  030%=      5-min Rain = 0
KEN1 220431Z 20013KT 11/M06 A2956 RMK A01 T01111059  RH  030%=      5-min Rain = 0
KEN1 220432Z 20013KT 11/M06 A2956 RMK A01 T01111059  RH  030%=      5-min Rain = 0
KEN1 220433Z 20013KT 11/M06 A2957 RMK A01 T01111059  RH  030%=      5-min Rain = 0
KEN1 220434Z 20014KT 11/M06 A2956 RMK A01 T01111059  RH  030%=      5-min Rain = 0
KEN1 220435Z 20013KT 11/M06 A2957 RMK A01 T01121059  RH  030%=      5-min Rain = 0
KEN1 220436Z 20014KT 11/M06 A2957 RMK A01 T01121059  RH  030%=      5-min Rain = 0
KEN1 220437Z 20014KT 11/M06 A2957 RMK A01 T01121060  RH  029%=      5-min Rain = 0
KEN1 220438Z 20013KT 11/M06 A2957 RMK A01 T01121060  RH  029%=      5-min Rain = 0
KEN1 220439Z 20014KT 11/M06 A2957 RMK A01 T01121059  RH  029%=      5-min Rain = 0
KEN1 220440Z 20016KT 11/M06 A2957 RMK A01 T01131060  RH  029%=      5-min Rain = 0
KEN1 220441Z 20015KT 11/M06 A2957 RMK A01 T01141060  RH  029%=      5-min Rain = 0
KEN1 220442Z 20013KT 11/M06 A2957 RMK A01 T01141060  RH  029%=      5-min Rain = 0
KEN1 220443Z 20015KT 11/M06 A2957 RMK A01 T01131060  RH  029%=      5-min Rain = 0
KEN1 220444Z 20014KT 11/M06 A2957 RMK A01 T01131059  RH  029%=      5-min Rain = 0
KEN1 220445Z 21013KT 11/M06 A2957 RMK A01 T01121060  RH  029%=      5-min Rain = 0
KEN1 220446Z 20012KT 11/M06 A2957 RMK A01 T01111059  RH  030%=      5-min Rain = 0
KEN1 220447Z 20012KT 11/M06 A2957 RMK A01 T01101059  RH  030%=      5-min Rain = 0
KEN1 220448Z 20011KT 11/M06 A2957 RMK A01 T01091059  RH  030%=      5-min Rain = 0
KEN1 220449Z 20013KT 11/M06 A2957 RMK A01 T01091059  RH  030%=      5-min Rain = 0
KEN1 220450Z 20013KT 11/M06 A2957 RMK A01 T01091059  RH  030%=      5-min Rain = 0
KEN1 220451Z 20013KT 11/M06 A2957 RMK A01 T01101059  RH  030%=      5-min Rain = 0
KEN1 220452Z 20013KT 11/M06 A2957 RMK A01 T01101059  RH  030%=      5-min Rain = 0
KEN1 220453Z 20013KT 11/M06 A2957 RMK A01 T01101059  RH  030%=      5-min Rain = 0
KEN1 220454Z 20014KT 11/M06 A2957 RMK A01 T01111059  RH  030%=      5-min Rain = 0
KEN1 220455Z 20016KT 11/M06 A2957 RMK A01 T01121059  RH  030%=      5-min Rain = 0
KEN1 220456Z 20016KT 11/M06 A2957 RMK A01 T01131060  RH  029%=      5-min Rain = 0
KEN1 220457Z 20016KT 11/M06 A2957 RMK A01 T01141060  RH  029%=      5-min Rain = 0
KEN1 220458Z 20016KT 12/M06 A2957 RMK A01 T01151061  RH  029%=      5-min Rain = 0
KEN1 220459Z 20015KT 12/M06 A2957 RMK A01 T01151061  RH  029%=      5-min Rain = 0
KEN1 220500Z 20013KT 12/M06 A2957 RMK A01 T01151060  RH  029%=      5-min Rain = 0
KEN1 220501Z 20014KT 12/M06 A2957 RMK A01 T01151060  RH  029%=      5-min Rain = 0
KEN1 220502Z 20014KT 11/M06 A2957 RMK A01 T01141060  RH  029%=      5-min Rain = 0
KEN1 220503Z 21012KT 11/M06 A2957 RMK A01 T01141061  RH  029%=      5-min Rain = 0
KEN1 220504Z 20013KT 11/M06 A2957 RMK A01 T01131061  RH  029%=      5-min Rain = 0
KEN1 220505Z 20011KT 11/M06 A2957 RMK A01 T01131061  RH  029%=      5-min Rain = 0
KEN1 220506Z 20010KT 11/M06 A2957 RMK A01 T01111061  RH  029%=      5-min Rain = 0
KEN1 220507Z 21011KT 11/M06 A2957 RMK A01 T01101060  RH  030%=      5-min Rain = 0
KEN1 220508Z 21011KT 11/M06 A2957 RMK A01 T01091060  RH  030%=      5-min Rain = 0
KEN1 220509Z 21011KT 11/M06 A2957 RMK A01 T01091060  RH  030%=      5-min Rain = 0
KEN1 220510Z 22011KT 11/M06 A2957 RMK A01 T01091060  RH  030%=      5-min Rain = 0
KEN1 220511Z 22011KT 11/M06 A2958 RMK A01 T01091061  RH  030%=      5-min Rain = 0
KEN1 220512Z 22010KT 11/M06 A2958 RMK A01 T01101061  RH  030%=      5-min Rain = 0
KEN1 220513Z 22011KT 11/M06 A2958 RMK A01 T01091060  RH  030%=      5-min Rain = 0
KEN1 220514Z 22009KT 11/M06 A2958 RMK A01 T01081060  RH  030%=      5-min Rain = 0
KEN1 220515Z 22010KT 11/M06 A2958 RMK A01 T01071060  RH  030%=      5-min Rain = 0
KEN1 220516Z 22010KT 11/M06 A2958 RMK A01 T01061060  RH  031%=      5-min Rain = 0
KEN1 220517Z 23009KT 10/M06 A2958 RMK A01 T01041059  RH  031%=      5-min Rain = 0
KEN1 220518Z 23010KT 10/M06 A2958 RMK A01 T01021060  RH  031%=      5-min Rain = 0
KEN1 220519Z 23011KT 10/M06 A2958 RMK A01 T01021059  RH  032%=      5-min Rain = 0
KEN1 220520Z 22010KT 10/M06 A2958 RMK A01 T01021060  RH  032%=      5-min Rain = 0
KEN1 220521Z 22011KT 10/M06 A2959 RMK A01 T01031059  RH  032%=      5-min Rain = 0
KEN1 220522Z 23011KT 10/M06 A2959 RMK A01 T01031059  RH  032%=      5-min Rain = 0
KEN1 220523Z 24011KT 10/M06 A2959 RMK A01 T01031059  RH  032%=      5-min Rain = 0
KEN1 220524Z 24012KT 10/M06 A296 RMK A01 T01031058  RH  032%=      5-min Rain = 0
KEN1 220525Z 26012KT 10/M06 A296 RMK A01 T01031058  RH  032%=      5-min Rain = 0
KEN1 220526Z 29013KT 10/M06 A2961 RMK A01 T01011057  RH  032%=      5-min Rain = 0
KEN1 220527Z 28011KT 10/M06 A2961 RMK A01 T00971057  RH  033%=      5-min Rain = 0
KEN1 220528Z 29011KT 09/M06 A2961 RMK A01 T00941056  RH  034%=      5-min Rain = 0
KEN1 220529Z 28012KT 09/M06 A2961 RMK A01 T00921056  RH  035%=      5-min Rain = 0
KEN1 220530Z 27013KT 09/M06 A2961 RMK A01 T00931056  RH  035%=      5-min Rain = 0
KEN1 220531Z 27013KT 10/M06 A2961 RMK A01 T00951056  RH  034%=      5-min Rain = 0
KEN1 220532Z 26012KT 10/M06 A2961 RMK A01 T00971057  RH  033%=      5-min Rain = 0
KEN1 220533Z 26012KT 10/M06 A2961 RMK A01 T00981057  RH  033%=      5-min Rain = 0
KEN1 220534Z 26012KT 10/M06 A2961 RMK A01 T00991057  RH  033%=      5-min Rain = 0
KEN1 220535Z 26012KT 10/M06 A2961 RMK A01 T01001056  RH  033%=      5-min Rain = 0
KEN1 220536Z 26013KT 10/M06 A2961 RMK A01 T01001056  RH  033%=      5-min Rain = 0
KEN1 220537Z 26011KT 10/M06 A2961 RMK A01 T01011056  RH  033%=      5-min Rain = 0
KEN1 220538Z 26012KT 10/M06 A2961 RMK A01 T01021056  RH  032%=      5-min Rain = 0
KEN1 220539Z 25012KT 10/M06 A2961 RMK A01 T01031056  RH  032%=      5-min Rain = 0
KEN1 220540Z 26012KT 10/M06 A2961 RMK A01 T01031056  RH  032%=      5-min Rain = 0
KEN1 220541Z 26012KT 10/M06 A2961 RMK A01 T01031057  RH  032%=      5-min Rain = 0
KEN1 220542Z 25012KT 10/M06 A2961 RMK A01 T01041056  RH  032%=      5-min Rain = 0
KEN1 220543Z 26012KT 10/M06 A2961 RMK A01 T01041056  RH  032%=      5-min Rain = 0
KEN1 220544Z 26011KT 10/M06 A2962 RMK A01 T01041056  RH  032%=      5-min Rain = 0
KEN1 220545Z 26011KT 10/M06 A2962 RMK A01 T01031056  RH  032%=      5-min Rain = 0
KEN1 220546Z 26011KT 10/M06 A2961 RMK A01 T01031056  RH  032%=      5-min Rain = 0
KEN1 220547Z 26010KT 10/M06 A2961 RMK A01 T01031056  RH  032%=      5-min Rain = 0
KEN1 220548Z 26009KT 10/M06 A2962 RMK A01 T01031056  RH  032%=      5-min Rain = 0
KEN1 220549Z 26009KT 10/M06 A2962 RMK A01 T01021056  RH  033%=      5-min Rain = 0
KEN1 220550Z 26010KT 10/M06 A2962 RMK A01 T01001055  RH  033%=      5-min Rain = 0
KEN1 220551Z 26009KT 10/M06 A2962 RMK A01 T00981056  RH  033%=      5-min Rain = 0
KEN1 220552Z 26009KT 10/M06 A2962 RMK A01 T00981055  RH  034%=      5-min Rain = 0
KEN1 220553Z 26009KT 10/M06 A2962 RMK A01 T00961055  RH  034%=      5-min Rain = 0
KEN1 220554Z 26009KT 10/M05 A2962 RMK A01 T00961054  RH  034%=      5-min Rain = 0
KEN1 220555Z 26009KT 10/M05 A2962 RMK A01 T00951054  RH  034%=      5-min Rain = 0
KEN1 220556Z 25009KT 10/M05 A2962 RMK A01 T00951054  RH  035%=      5-min Rain = 0
KEN1 220557Z 25009KT 09/M05 A2962 RMK A01 T00941054  RH  035%=      5-min Rain = 0
KEN1 220558Z 26010KT 09/M05 A2962 RMK A01 T00941053  RH  035%=      5-min Rain = 0
KEN1 220559Z 25009KT 09/M05 A2962 RMK A01 T00941052  RH  035%=      5-min Rain = 0

Page generated in 0.1203 seconds.